<?xml version='1.0' encoding='UTF-8'?>
<gpx version="1.1" creator="https://www.komoot.de" xmlns="http://www.topografix.com/GPX/1/1" xmlns:xsi="http://www.w3.org/2001/XMLSchema-instance" xsi:schemaLocation="http://www.topografix.com/GPX/1/1 http://www.topografix.com/GPX/1/1/gpx.xsd">
  <metadata>
    <name>ADFC - Lippe-Werne</name>
    <author>
      <link href="https://www.komoot.de">
        <text>komoot</text>
        <type>text/html</type>
      </link>
    </author>
  </metadata>
  <wpt lat="51.623535" lon="7.495080">
    <name>Pause</name>
    <sym>Flag, Blue</sym>
  </wpt>
  <trk>
    <name>ADFC - Lippe-Werne</name>
    <type>touring_bicycle</type>
    <trkseg>
      <trkpt lat="51.616219" lon="7.643369">
        <ele>62.995900</ele>
        <time>2026-08-27T13:25:53.570Z</time>
      </trkpt>
      <trkpt lat="51.616301" lon="7.643330">
        <ele>62.995900</ele>
        <time>2026-08-27T13:25:55.298Z</time>
      </trkpt>
      <trkpt lat="51.616261" lon="7.643098">
        <ele>62.995900</ele>
        <time>2026-08-27T13:25:58.277Z</time>
      </trkpt>
      <trkpt lat="51.616197" lon="7.642729">
        <ele>62.995900</ele>
        <time>2026-08-27T13:26:02.924Z</time>
      </trkpt>
      <trkpt lat="51.616007" lon="7.642862">
        <ele>62.995900</ele>
        <time>2026-08-27T13:26:06.898Z</time>
      </trkpt>
      <trkpt lat="51.615928" lon="7.642927">
        <ele>62.995900</ele>
        <time>2026-08-27T13:26:08.584Z</time>
      </trkpt>
      <trkpt lat="51.615863" lon="7.642834">
        <ele>62.995900</ele>
        <time>2026-08-27T13:26:10.232Z</time>
      </trkpt>
      <trkpt lat="51.615772" lon="7.642857">
        <ele>62.881832</ele>
        <time>2026-08-27T13:26:11.951Z</time>
      </trkpt>
      <trkpt lat="51.615728" lon="7.642979">
        <ele>62.675881</ele>
        <time>2026-08-27T13:26:13.592Z</time>
      </trkpt>
      <trkpt lat="51.615734" lon="7.643051">
        <ele>62.569837</ele>
        <time>2026-08-27T13:26:14.435Z</time>
      </trkpt>
      <trkpt lat="51.615321" lon="7.643326">
        <ele>61.519198</ele>
        <time>2026-08-27T13:26:22.353Z</time>
      </trkpt>
      <trkpt lat="51.614632" lon="7.643781">
        <ele>59.768534</ele>
        <time>2026-08-27T13:26:34.925Z</time>
      </trkpt>
      <trkpt lat="51.614388" lon="7.643955">
        <ele>59.141191</ele>
        <time>2026-08-27T13:26:39.349Z</time>
      </trkpt>
      <trkpt lat="51.613665" lon="7.644431">
        <ele>56.870606</ele>
        <time>2026-08-27T13:26:52.023Z</time>
      </trkpt>
      <trkpt lat="51.613026" lon="7.644864">
        <ele>54.756800</ele>
        <time>2026-08-27T13:27:03.243Z</time>
      </trkpt>
      <trkpt lat="51.612386" lon="7.645313">
        <ele>52.940087</ele>
        <time>2026-08-27T13:27:14.905Z</time>
      </trkpt>
      <trkpt lat="51.612361" lon="7.645259">
        <ele>52.873266</ele>
        <time>2026-08-27T13:27:15.616Z</time>
      </trkpt>
      <trkpt lat="51.612301" lon="7.645230">
        <ele>52.773188</ele>
        <time>2026-08-27T13:27:16.678Z</time>
      </trkpt>
      <trkpt lat="51.612235" lon="7.645293">
        <ele>52.650616</ele>
        <time>2026-08-27T13:27:18.006Z</time>
      </trkpt>
      <trkpt lat="51.612222" lon="7.645374">
        <ele>52.567619</ele>
        <time>2026-08-27T13:27:18.915Z</time>
      </trkpt>
      <trkpt lat="51.611982" lon="7.645334">
        <ele>52.182153</ele>
        <time>2026-08-27T13:27:23.194Z</time>
      </trkpt>
      <trkpt lat="51.611918" lon="7.645336">
        <ele>52.079889</ele>
        <time>2026-08-27T13:27:24.360Z</time>
      </trkpt>
      <trkpt lat="51.611668" lon="7.645342">
        <ele>51.680452</ele>
        <time>2026-08-27T13:27:28.973Z</time>
      </trkpt>
      <trkpt lat="51.611330" lon="7.645338">
        <ele>51.140458</ele>
        <time>2026-08-27T13:27:35.374Z</time>
      </trkpt>
      <trkpt lat="51.611287" lon="7.645209">
        <ele>50.995208</ele>
        <time>2026-08-27T13:27:37.762Z</time>
      </trkpt>
      <trkpt lat="51.611038" lon="7.644500">
        <ele>50.362185</ele>
        <time>2026-08-27T13:27:47.791Z</time>
      </trkpt>
      <trkpt lat="51.610689" lon="7.643804">
        <ele>50.172305</ele>
        <time>2026-08-27T13:27:59.200Z</time>
      </trkpt>
      <trkpt lat="51.610301" lon="7.642520">
        <ele>49.869211</ele>
        <time>2026-08-27T13:28:18.098Z</time>
      </trkpt>
      <trkpt lat="51.609628" lon="7.640633">
        <ele>50.227678</ele>
        <time>2026-08-27T13:28:48.827Z</time>
      </trkpt>
      <trkpt lat="51.609014" lon="7.639369">
        <ele>50.831376</ele>
        <time>2026-08-27T13:29:14.118Z</time>
      </trkpt>
      <trkpt lat="51.608553" lon="7.637977">
        <ele>51.864267</ele>
        <time>2026-08-27T13:29:40.591Z</time>
      </trkpt>
      <trkpt lat="51.608507" lon="7.637823">
        <ele>51.976154</ele>
        <time>2026-08-27T13:29:44.200Z</time>
      </trkpt>
      <trkpt lat="51.608419" lon="7.637881">
        <ele>52.076402</ele>
        <time>2026-08-27T13:29:47.460Z</time>
      </trkpt>
      <trkpt lat="51.608405" lon="7.637802">
        <ele>52.130191</ele>
        <time>2026-08-27T13:29:49.196Z</time>
      </trkpt>
      <trkpt lat="51.608387" lon="7.637719">
        <ele>52.187753</ele>
        <time>2026-08-27T13:29:51.075Z</time>
      </trkpt>
      <trkpt lat="51.608455" lon="7.637679">
        <ele>52.264078</ele>
        <time>2026-08-27T13:29:53.485Z</time>
      </trkpt>
      <trkpt lat="51.608416" lon="7.637565">
        <ele>52.349295</ele>
        <time>2026-08-27T13:29:56.228Z</time>
      </trkpt>
      <trkpt lat="51.608288" lon="7.637240">
        <ele>52.590965</ele>
        <time>2026-08-27T13:30:02.525Z</time>
      </trkpt>
      <trkpt lat="51.607576" lon="7.635812">
        <ele>53.734830</ele>
        <time>2026-08-27T13:30:32.225Z</time>
      </trkpt>
      <trkpt lat="51.607258" lon="7.634866">
        <ele>54.389475</ele>
        <time>2026-08-27T13:30:49.902Z</time>
      </trkpt>
      <trkpt lat="51.607077" lon="7.634247">
        <ele>54.783365</ele>
        <time>2026-08-27T13:31:00.979Z</time>
      </trkpt>
      <trkpt lat="51.606957" lon="7.633941">
        <ele>54.991715</ele>
        <time>2026-08-27T13:31:06.811Z</time>
      </trkpt>
      <trkpt lat="51.606903" lon="7.633805">
        <ele>55.084646</ele>
        <time>2026-08-27T13:31:10.102Z</time>
      </trkpt>
      <trkpt lat="51.606869" lon="7.633623">
        <ele>55.194064</ele>
        <time>2026-08-27T13:31:13.972Z</time>
      </trkpt>
      <trkpt lat="51.606846" lon="7.632693">
        <ele>55.729905</ele>
        <time>2026-08-27T13:31:28.593Z</time>
      </trkpt>
      <trkpt lat="51.606861" lon="7.631272">
        <ele>56.409649</ele>
        <time>2026-08-27T13:31:51.229Z</time>
      </trkpt>
      <trkpt lat="51.606864" lon="7.630088">
        <ele>56.955391</ele>
        <time>2026-08-27T13:32:10.168Z</time>
      </trkpt>
      <trkpt lat="51.606863" lon="7.629879">
        <ele>57.051728</ele>
        <time>2026-08-27T13:32:14.335Z</time>
      </trkpt>
      <trkpt lat="51.606706" lon="7.629874">
        <ele>57.168271</ele>
        <time>2026-08-27T13:32:18.172Z</time>
      </trkpt>
      <trkpt lat="51.606726" lon="7.629619">
        <ele>57.193712</ele>
        <time>2026-08-27T13:32:23.172Z</time>
      </trkpt>
      <trkpt lat="51.606819" lon="7.628516">
        <ele>57.220695</ele>
        <time>2026-08-27T13:32:38.767Z</time>
      </trkpt>
      <trkpt lat="51.606855" lon="7.628097">
        <ele>57.230948</ele>
        <time>2026-08-27T13:32:44.257Z</time>
      </trkpt>
      <trkpt lat="51.607005" lon="7.626491">
        <ele>57.357213</ele>
        <time>2026-08-27T13:33:06.125Z</time>
      </trkpt>
      <trkpt lat="51.607060" lon="7.626070">
        <ele>57.445999</ele>
        <time>2026-08-27T13:33:12.323Z</time>
      </trkpt>
      <trkpt lat="51.607235" lon="7.623962">
        <ele>57.872860</ele>
        <time>2026-08-27T13:33:44.426Z</time>
      </trkpt>
      <trkpt lat="51.607365" lon="7.623172">
        <ele>57.970103</ele>
        <time>2026-08-27T13:33:56.838Z</time>
      </trkpt>
      <trkpt lat="51.607476" lon="7.622496">
        <ele>58.053301</ele>
        <time>2026-08-27T13:34:07.074Z</time>
      </trkpt>
      <trkpt lat="51.607509" lon="7.622272">
        <ele>58.080694</ele>
        <time>2026-08-27T13:34:11.352Z</time>
      </trkpt>
      <trkpt lat="51.607568" lon="7.622039">
        <ele>58.110633</ele>
        <time>2026-08-27T13:34:15.990Z</time>
      </trkpt>
      <trkpt lat="51.607661" lon="7.621716">
        <ele>58.152995</ele>
        <time>2026-08-27T13:34:20.897Z</time>
      </trkpt>
      <trkpt lat="51.608703" lon="7.620264">
        <ele>57.464106</ele>
        <time>2026-08-27T13:34:49.156Z</time>
      </trkpt>
      <trkpt lat="51.608762" lon="7.620108">
        <ele>57.389945</ele>
        <time>2026-08-27T13:34:51.371Z</time>
      </trkpt>
      <trkpt lat="51.608800" lon="7.619776">
        <ele>57.252876</ele>
        <time>2026-08-27T13:34:55.437Z</time>
      </trkpt>
      <trkpt lat="51.608787" lon="7.618717">
        <ele>56.782098</ele>
        <time>2026-08-27T13:35:08.132Z</time>
      </trkpt>
      <trkpt lat="51.608775" lon="7.618494">
        <ele>56.672924</ele>
        <time>2026-08-27T13:35:11.747Z</time>
      </trkpt>
      <trkpt lat="51.608837" lon="7.618485">
        <ele>56.624033</ele>
        <time>2026-08-27T13:35:12.943Z</time>
      </trkpt>
      <trkpt lat="51.608838" lon="7.618251">
        <ele>56.509899</ele>
        <time>2026-08-27T13:35:16.760Z</time>
      </trkpt>
      <trkpt lat="51.608839" lon="7.618006">
        <ele>56.390400</ele>
        <time>2026-08-27T13:35:19.699Z</time>
      </trkpt>
      <trkpt lat="51.608713" lon="7.616197">
        <ele>55.598670</ele>
        <time>2026-08-27T13:35:42.365Z</time>
      </trkpt>
      <trkpt lat="51.608716" lon="7.615556">
        <ele>55.559356</ele>
        <time>2026-08-27T13:35:50.934Z</time>
      </trkpt>
      <trkpt lat="51.608825" lon="7.614685">
        <ele>55.504862</ele>
        <time>2026-08-27T13:36:03.304Z</time>
      </trkpt>
      <trkpt lat="51.608961" lon="7.612975">
        <ele>55.265112</ele>
        <time>2026-08-27T13:36:27.415Z</time>
      </trkpt>
      <trkpt lat="51.609073" lon="7.611947">
        <ele>54.961052</ele>
        <time>2026-08-27T13:36:41.033Z</time>
      </trkpt>
      <trkpt lat="51.609468" lon="7.609144">
        <ele>53.784790</ele>
        <time>2026-08-27T13:37:16.077Z</time>
      </trkpt>
      <trkpt lat="51.609496" lon="7.608621">
        <ele>53.520973</ele>
        <time>2026-08-27T13:37:22.491Z</time>
      </trkpt>
      <trkpt lat="51.609607" lon="7.608639">
        <ele>53.430691</ele>
        <time>2026-08-27T13:37:24.937Z</time>
      </trkpt>
      <trkpt lat="51.609758" lon="7.608674">
        <ele>53.307233</ele>
        <time>2026-08-27T13:37:27.945Z</time>
      </trkpt>
      <trkpt lat="51.609878" lon="7.608701">
        <ele>53.209179</ele>
        <time>2026-08-27T13:37:30.348Z</time>
      </trkpt>
      <trkpt lat="51.610003" lon="7.608726">
        <ele>53.107798</ele>
        <time>2026-08-27T13:37:32.842Z</time>
      </trkpt>
      <trkpt lat="51.611036" lon="7.608822">
        <ele>52.286851</ele>
        <time>2026-08-27T13:38:09.548Z</time>
      </trkpt>
      <trkpt lat="51.611062" lon="7.608357">
        <ele>52.056819</ele>
        <time>2026-08-27T13:38:19.558Z</time>
      </trkpt>
      <trkpt lat="51.611117" lon="7.607561">
        <ele>51.609324</ele>
        <time>2026-08-27T13:38:36.245Z</time>
      </trkpt>
      <trkpt lat="51.611157" lon="7.605141">
        <ele>49.053486</ele>
        <time>2026-08-27T13:39:02.875Z</time>
      </trkpt>
      <trkpt lat="51.611171" lon="7.604266">
        <ele>48.391143</ele>
        <time>2026-08-27T13:39:12.682Z</time>
      </trkpt>
      <trkpt lat="51.611186" lon="7.602954">
        <ele>47.701493</ele>
        <time>2026-08-27T13:39:28.345Z</time>
      </trkpt>
      <trkpt lat="51.611154" lon="7.602937">
        <ele>47.672975</ele>
        <time>2026-08-27T13:39:29.517Z</time>
      </trkpt>
      <trkpt lat="51.611163" lon="7.602485">
        <ele>47.435300</ele>
        <time>2026-08-27T13:39:39.507Z</time>
      </trkpt>
      <trkpt lat="51.611047" lon="7.602340">
        <ele>47.311021</ele>
        <time>2026-08-27T13:39:44.830Z</time>
      </trkpt>
      <trkpt lat="51.611150" lon="7.601987">
        <ele>47.156652</ele>
        <time>2026-08-27T13:39:53.635Z</time>
      </trkpt>
      <trkpt lat="51.611191" lon="7.601941">
        <ele>47.210167</ele>
        <time>2026-08-27T13:39:55.461Z</time>
      </trkpt>
      <trkpt lat="51.611211" lon="7.601839">
        <ele>47.281302</ele>
        <time>2026-08-27T13:39:56.919Z</time>
      </trkpt>
      <trkpt lat="51.611216" lon="7.601655">
        <ele>47.403787</ele>
        <time>2026-08-27T13:39:59.428Z</time>
      </trkpt>
      <trkpt lat="51.611219" lon="7.601535">
        <ele>47.483657</ele>
        <time>2026-08-27T13:40:01.086Z</time>
      </trkpt>
      <trkpt lat="51.611224" lon="7.601451">
        <ele>47.539776</ele>
        <time>2026-08-27T13:40:02.232Z</time>
      </trkpt>
      <trkpt lat="51.611238" lon="7.601258">
        <ele>47.669002</ele>
        <time>2026-08-27T13:40:05.088Z</time>
      </trkpt>
      <trkpt lat="51.611246" lon="7.599722">
        <ele>48.690542</ele>
        <time>2026-08-27T13:40:31.378Z</time>
      </trkpt>
      <trkpt lat="51.611250" lon="7.599049">
        <ele>49.180079</ele>
        <time>2026-08-27T13:40:43.953Z</time>
      </trkpt>
      <trkpt lat="51.611252" lon="7.598704">
        <ele>49.524741</ele>
        <time>2026-08-27T13:40:50.574Z</time>
      </trkpt>
      <trkpt lat="51.611257" lon="7.597484">
        <ele>50.743519</ele>
        <time>2026-08-27T13:41:14.060Z</time>
      </trkpt>
      <trkpt lat="51.611257" lon="7.597344">
        <ele>50.883376</ele>
        <time>2026-08-27T13:41:16.546Z</time>
      </trkpt>
      <trkpt lat="51.611259" lon="7.596846">
        <ele>51.380876</ele>
        <time>2026-08-27T13:41:24.967Z</time>
      </trkpt>
      <trkpt lat="51.611262" lon="7.596026">
        <ele>52.007346</ele>
        <time>2026-08-27T13:41:37.864Z</time>
      </trkpt>
      <trkpt lat="51.611261" lon="7.595826">
        <ele>52.054369</ele>
        <time>2026-08-27T13:41:40.901Z</time>
      </trkpt>
      <trkpt lat="51.611260" lon="7.595397">
        <ele>52.155230</ele>
        <time>2026-08-27T13:41:47.314Z</time>
      </trkpt>
      <trkpt lat="51.611279" lon="7.595304">
        <ele>52.178248</ele>
        <time>2026-08-27T13:41:48.758Z</time>
      </trkpt>
      <trkpt lat="51.611371" lon="7.595134">
        <ele>52.231263</ele>
        <time>2026-08-27T13:41:52.049Z</time>
      </trkpt>
      <trkpt lat="51.611266" lon="7.594893">
        <ele>52.300478</ele>
        <time>2026-08-27T13:41:56.300Z</time>
      </trkpt>
      <trkpt lat="51.611195" lon="7.594601">
        <ele>52.374204</ele>
        <time>2026-08-27T13:42:00.886Z</time>
      </trkpt>
      <trkpt lat="51.611004" lon="7.593318">
        <ele>52.587343</ele>
        <time>2026-08-27T13:42:19.915Z</time>
      </trkpt>
      <trkpt lat="51.610912" lon="7.592959">
        <ele>52.518690</ele>
        <time>2026-08-27T13:42:25.344Z</time>
      </trkpt>
      <trkpt lat="51.610821" lon="7.592684">
        <ele>52.463606</ele>
        <time>2026-08-27T13:42:29.609Z</time>
      </trkpt>
      <trkpt lat="51.610656" lon="7.592314">
        <ele>52.383081</ele>
        <time>2026-08-27T13:42:35.828Z</time>
      </trkpt>
      <trkpt lat="51.610147" lon="7.591356">
        <ele>52.160205</ele>
        <time>2026-08-27T13:42:52.122Z</time>
      </trkpt>
      <trkpt lat="51.609899" lon="7.590775">
        <ele>51.997599</ele>
        <time>2026-08-27T13:43:00.501Z</time>
      </trkpt>
      <trkpt lat="51.609726" lon="7.590285">
        <ele>51.851480</ele>
        <time>2026-08-27T13:43:07.200Z</time>
      </trkpt>
      <trkpt lat="51.609640" lon="7.590145">
        <ele>51.800431</ele>
        <time>2026-08-27T13:43:09.583Z</time>
      </trkpt>
      <trkpt lat="51.609440" lon="7.589984">
        <ele>51.707092</ele>
        <time>2026-08-27T13:43:14.028Z</time>
      </trkpt>
      <trkpt lat="51.609110" lon="7.589950">
        <ele>51.569055</ele>
        <time>2026-08-27T13:43:20.933Z</time>
      </trkpt>
      <trkpt lat="51.609108" lon="7.589784">
        <ele>51.526013</ele>
        <time>2026-08-27T13:43:23.143Z</time>
      </trkpt>
      <trkpt lat="51.609099" lon="7.589492">
        <ele>51.450222</ele>
        <time>2026-08-27T13:43:27.170Z</time>
      </trkpt>
      <trkpt lat="51.609108" lon="7.589784">
        <ele>51.374431</ele>
        <time>2026-08-27T13:43:31.417Z</time>
      </trkpt>
      <trkpt lat="51.609110" lon="7.589950">
        <ele>51.491732</ele>
        <time>2026-08-27T13:43:33.907Z</time>
      </trkpt>
      <trkpt lat="51.609440" lon="7.589984">
        <ele>51.990111</ele>
        <time>2026-08-27T13:43:42.338Z</time>
      </trkpt>
      <trkpt lat="51.609640" lon="7.590145">
        <ele>52.327110</ele>
        <time>2026-08-27T13:43:48.353Z</time>
      </trkpt>
      <trkpt lat="51.609726" lon="7.590285">
        <ele>52.511420</ele>
        <time>2026-08-27T13:43:51.717Z</time>
      </trkpt>
      <trkpt lat="51.609881" lon="7.590152">
        <ele>52.776126</ele>
        <time>2026-08-27T13:43:56.659Z</time>
      </trkpt>
      <trkpt lat="51.610336" lon="7.590083">
        <ele>53.464916</ele>
        <time>2026-08-27T13:44:10.265Z</time>
      </trkpt>
      <trkpt lat="51.610390" lon="7.589244">
        <ele>54.430298</ele>
        <time>2026-08-27T13:44:26.957Z</time>
      </trkpt>
      <trkpt lat="51.610395" lon="7.589164">
        <ele>54.580183</ele>
        <time>2026-08-27T13:44:28.594Z</time>
      </trkpt>
      <trkpt lat="51.610443" lon="7.588425">
        <ele>55.965292</ele>
        <time>2026-08-27T13:44:43.794Z</time>
      </trkpt>
      <trkpt lat="51.610484" lon="7.587874">
        <ele>56.999776</ele>
        <time>2026-08-27T13:44:55.513Z</time>
      </trkpt>
      <trkpt lat="51.610531" lon="7.587523">
        <ele>57.669124</ele>
        <time>2026-08-27T13:45:03.400Z</time>
      </trkpt>
      <trkpt lat="51.610751" lon="7.587065">
        <ele>58.748496</ele>
        <time>2026-08-27T13:45:16.670Z</time>
      </trkpt>
      <trkpt lat="51.610978" lon="7.586674">
        <ele>59.670003</ele>
        <time>2026-08-27T13:45:28.995Z</time>
      </trkpt>
      <trkpt lat="51.611086" lon="7.586570">
        <ele>59.941073</ele>
        <time>2026-08-27T13:45:33.459Z</time>
      </trkpt>
      <trkpt lat="51.611216" lon="7.585940">
        <ele>60.829137</ele>
        <time>2026-08-27T13:45:47.365Z</time>
      </trkpt>
      <trkpt lat="51.611271" lon="7.585259">
        <ele>61.747785</ele>
        <time>2026-08-27T13:46:00.778Z</time>
      </trkpt>
      <trkpt lat="51.611264" lon="7.585124">
        <ele>61.929004</ele>
        <time>2026-08-27T13:46:03.294Z</time>
      </trkpt>
      <trkpt lat="51.611137" lon="7.584242">
        <ele>63.140161</ele>
        <time>2026-08-27T13:46:19.156Z</time>
      </trkpt>
      <trkpt lat="51.611044" lon="7.583597">
        <ele>63.333617</ele>
        <time>2026-08-27T13:46:29.242Z</time>
      </trkpt>
      <trkpt lat="51.610980" lon="7.583258">
        <ele>63.321636</ele>
        <time>2026-08-27T13:46:34.143Z</time>
      </trkpt>
      <trkpt lat="51.610856" lon="7.582803">
        <ele>63.304833</ele>
        <time>2026-08-27T13:46:40.704Z</time>
      </trkpt>
      <trkpt lat="51.611443" lon="7.582390">
        <ele>63.269951</ele>
        <time>2026-08-27T13:46:54.078Z</time>
      </trkpt>
      <trkpt lat="51.611519" lon="7.582362">
        <ele>63.265706</ele>
        <time>2026-08-27T13:46:55.705Z</time>
      </trkpt>
      <trkpt lat="51.611658" lon="7.582407">
        <ele>63.257985</ele>
        <time>2026-08-27T13:46:58.634Z</time>
      </trkpt>
      <trkpt lat="51.611964" lon="7.582503">
        <ele>63.109155</ele>
        <time>2026-08-27T13:47:09.681Z</time>
      </trkpt>
      <trkpt lat="51.612282" lon="7.582411">
        <ele>62.893879</ele>
        <time>2026-08-27T13:47:16.261Z</time>
      </trkpt>
      <trkpt lat="51.612533" lon="7.582400">
        <ele>62.726575</ele>
        <time>2026-08-27T13:47:21.300Z</time>
      </trkpt>
      <trkpt lat="51.612779" lon="7.582439">
        <ele>62.561872</ele>
        <time>2026-08-27T13:47:26.227Z</time>
      </trkpt>
      <trkpt lat="51.612965" lon="7.582520">
        <ele>62.433488</ele>
        <time>2026-08-27T13:47:30.089Z</time>
      </trkpt>
      <trkpt lat="51.613307" lon="7.582757">
        <ele>62.185410</ele>
        <time>2026-08-27T13:47:37.550Z</time>
      </trkpt>
      <trkpt lat="51.614274" lon="7.583241">
        <ele>61.069631</ele>
        <time>2026-08-27T13:47:57.115Z</time>
      </trkpt>
      <trkpt lat="51.614328" lon="7.583262">
        <ele>61.002585</ele>
        <time>2026-08-27T13:47:58.164Z</time>
      </trkpt>
      <trkpt lat="51.614579" lon="7.583317">
        <ele>60.696859</ele>
        <time>2026-08-27T13:48:02.945Z</time>
      </trkpt>
      <trkpt lat="51.614483" lon="7.581552">
        <ele>59.192592</ele>
        <time>2026-08-27T13:48:23.278Z</time>
      </trkpt>
      <trkpt lat="51.614427" lon="7.581152">
        <ele>58.779892</ele>
        <time>2026-08-27T13:48:27.718Z</time>
      </trkpt>
      <trkpt lat="51.614238" lon="7.580335">
        <ele>57.902380</ele>
        <time>2026-08-27T13:48:37.211Z</time>
      </trkpt>
      <trkpt lat="51.614220" lon="7.580070">
        <ele>57.634069</ele>
        <time>2026-08-27T13:48:40.206Z</time>
      </trkpt>
      <trkpt lat="51.614878" lon="7.580248">
        <ele>56.711327</ele>
        <time>2026-08-27T13:48:52.711Z</time>
      </trkpt>
      <trkpt lat="51.615321" lon="7.580346">
        <ele>56.263421</ele>
        <time>2026-08-27T13:49:01.247Z</time>
      </trkpt>
      <trkpt lat="51.615460" lon="7.580377">
        <ele>56.122861</ele>
        <time>2026-08-27T13:49:04.095Z</time>
      </trkpt>
      <trkpt lat="51.616105" lon="7.580501">
        <ele>55.472198</ele>
        <time>2026-08-27T13:49:17.270Z</time>
      </trkpt>
      <trkpt lat="51.616510" lon="7.580596">
        <ele>55.007671</ele>
        <time>2026-08-27T13:49:25.185Z</time>
      </trkpt>
      <trkpt lat="51.616524" lon="7.580381">
        <ele>54.802821</ele>
        <time>2026-08-27T13:49:27.674Z</time>
      </trkpt>
      <trkpt lat="51.616603" lon="7.579156">
        <ele>53.635774</ele>
        <time>2026-08-27T13:49:41.612Z</time>
      </trkpt>
      <trkpt lat="51.616668" lon="7.578221">
        <ele>52.744239</ele>
        <time>2026-08-27T13:49:52.018Z</time>
      </trkpt>
      <trkpt lat="51.616797" lon="7.576125">
        <ele>51.195844</ele>
        <time>2026-08-27T13:50:15.472Z</time>
      </trkpt>
      <trkpt lat="51.616789" lon="7.575897">
        <ele>51.037323</ele>
        <time>2026-08-27T13:50:18.090Z</time>
      </trkpt>
      <trkpt lat="51.616734" lon="7.575576">
        <ele>50.806169</ele>
        <time>2026-08-27T13:50:22.076Z</time>
      </trkpt>
      <trkpt lat="51.616830" lon="7.575479">
        <ele>50.679472</ele>
        <time>2026-08-27T13:50:24.367Z</time>
      </trkpt>
      <trkpt lat="51.616912" lon="7.575291">
        <ele>50.519990</ele>
        <time>2026-08-27T13:50:27.540Z</time>
      </trkpt>
      <trkpt lat="51.617205" lon="7.574380">
        <ele>51.056140</ele>
        <time>2026-08-27T13:50:44.307Z</time>
      </trkpt>
      <trkpt lat="51.617365" lon="7.573874">
        <ele>51.478078</ele>
        <time>2026-08-27T13:50:54.827Z</time>
      </trkpt>
      <trkpt lat="51.617443" lon="7.573924">
        <ele>51.578545</ele>
        <time>2026-08-27T13:50:57.625Z</time>
      </trkpt>
      <trkpt lat="51.617794" lon="7.572927">
        <ele>52.430172</ele>
        <time>2026-08-27T13:51:20.072Z</time>
      </trkpt>
      <trkpt lat="51.618125" lon="7.572294">
        <ele>52.717662</ele>
        <time>2026-08-27T13:51:34.360Z</time>
      </trkpt>
      <trkpt lat="51.618179" lon="7.572192">
        <ele>52.749583</ele>
        <time>2026-08-27T13:51:36.467Z</time>
      </trkpt>
      <trkpt lat="51.618151" lon="7.572057">
        <ele>52.783479</ele>
        <time>2026-08-27T13:51:38.432Z</time>
      </trkpt>
      <trkpt lat="51.617898" lon="7.571386">
        <ele>52.970427</ele>
        <time>2026-08-27T13:51:48.707Z</time>
      </trkpt>
      <trkpt lat="51.617850" lon="7.571246">
        <ele>53.008513</ele>
        <time>2026-08-27T13:51:50.744Z</time>
      </trkpt>
      <trkpt lat="51.616116" lon="7.566231">
        <ele>54.940315</ele>
        <time>2026-08-27T13:53:17.804Z</time>
      </trkpt>
      <trkpt lat="51.615823" lon="7.565364">
        <ele>55.343305</ele>
        <time>2026-08-27T13:53:33.966Z</time>
      </trkpt>
      <trkpt lat="51.615805" lon="7.565247">
        <ele>55.385629</ele>
        <time>2026-08-27T13:53:35.853Z</time>
      </trkpt>
      <trkpt lat="51.615716" lon="7.565054">
        <ele>55.423159</ele>
        <time>2026-08-27T13:53:39.583Z</time>
      </trkpt>
      <trkpt lat="51.615457" lon="7.564321">
        <ele>55.554820</ele>
        <time>2026-08-27T13:53:52.067Z</time>
      </trkpt>
      <trkpt lat="51.614888" lon="7.562742">
        <ele>55.836145</ele>
        <time>2026-08-27T13:54:16.988Z</time>
      </trkpt>
      <trkpt lat="51.614241" lon="7.560989">
        <ele>55.967067</ele>
        <time>2026-08-27T13:54:46.087Z</time>
      </trkpt>
      <trkpt lat="51.613838" lon="7.560053">
        <ele>55.917786</ele>
        <time>2026-08-27T13:55:02.263Z</time>
      </trkpt>
      <trkpt lat="51.613313" lon="7.558991">
        <ele>55.488494</ele>
        <time>2026-08-27T13:55:20.055Z</time>
      </trkpt>
      <trkpt lat="51.612754" lon="7.558044">
        <ele>54.990537</ele>
        <time>2026-08-27T13:55:36.256Z</time>
      </trkpt>
      <trkpt lat="51.612147" lon="7.557129">
        <ele>53.295670</ele>
        <time>2026-08-27T13:55:51.019Z</time>
      </trkpt>
      <trkpt lat="51.611856" lon="7.556764">
        <ele>52.543767</ele>
        <time>2026-08-27T13:55:57.241Z</time>
      </trkpt>
      <trkpt lat="51.611668" lon="7.556529">
        <ele>52.058628</ele>
        <time>2026-08-27T13:56:01.179Z</time>
      </trkpt>
      <trkpt lat="51.610890" lon="7.555622">
        <ele>51.055956</ele>
        <time>2026-08-27T13:56:17.686Z</time>
      </trkpt>
      <trkpt lat="51.608659" lon="7.553157">
        <ele>50.795792</ele>
        <time>2026-08-27T13:57:23.199Z</time>
      </trkpt>
      <trkpt lat="51.608460" lon="7.552943">
        <ele>50.854999</ele>
        <time>2026-08-27T13:57:28.734Z</time>
      </trkpt>
      <trkpt lat="51.608333" lon="7.552807">
        <ele>50.766737</ele>
        <time>2026-08-27T13:57:32.863Z</time>
      </trkpt>
      <trkpt lat="51.607678" lon="7.552131">
        <ele>50.316521</ele>
        <time>2026-08-27T13:57:47.622Z</time>
      </trkpt>
      <trkpt lat="51.606948" lon="7.551379">
        <ele>49.816069</ele>
        <time>2026-08-27T13:58:05.545Z</time>
      </trkpt>
      <trkpt lat="51.606685" lon="7.551095">
        <ele>49.825536</ele>
        <time>2026-08-27T13:58:12.683Z</time>
      </trkpt>
      <trkpt lat="51.605345" lon="7.549643">
        <ele>49.942951</ele>
        <time>2026-08-27T13:58:49.616Z</time>
      </trkpt>
      <trkpt lat="51.604846" lon="7.549110">
        <ele>50.267659</ele>
        <time>2026-08-27T13:59:02.724Z</time>
      </trkpt>
      <trkpt lat="51.603510" lon="7.547649">
        <ele>51.549781</ele>
        <time>2026-08-27T13:59:44.111Z</time>
      </trkpt>
      <trkpt lat="51.602784" lon="7.546913">
        <ele>52.648749</ele>
        <time>2026-08-27T14:00:08.528Z</time>
      </trkpt>
      <trkpt lat="51.602665" lon="7.546783">
        <ele>52.832960</ele>
        <time>2026-08-27T14:00:12.635Z</time>
      </trkpt>
      <trkpt lat="51.602065" lon="7.546134">
        <ele>53.605362</ele>
        <time>2026-08-27T14:00:33.077Z</time>
      </trkpt>
      <trkpt lat="51.600802" lon="7.544790">
        <ele>54.809939</ele>
        <time>2026-08-27T14:01:11.740Z</time>
      </trkpt>
      <trkpt lat="51.600794" lon="7.544920">
        <ele>54.783188</ele>
        <time>2026-08-27T14:01:13.555Z</time>
      </trkpt>
      <trkpt lat="51.600820" lon="7.545025">
        <ele>54.760041</ele>
        <time>2026-08-27T14:01:15.059Z</time>
      </trkpt>
      <trkpt lat="51.600724" lon="7.544924">
        <ele>54.722233</ele>
        <time>2026-08-27T14:01:17.568Z</time>
      </trkpt>
      <trkpt lat="51.600657" lon="7.544853">
        <ele>54.695789</ele>
        <time>2026-08-27T14:01:27.453Z</time>
      </trkpt>
      <trkpt lat="51.600637" lon="7.544830">
        <ele>54.687686</ele>
        <time>2026-08-27T14:01:28.008Z</time>
      </trkpt>
      <trkpt lat="51.600688" lon="7.544707">
        <ele>54.657402</ele>
        <time>2026-08-27T14:01:29.965Z</time>
      </trkpt>
      <trkpt lat="51.600776" lon="7.544485">
        <ele>54.603473</ele>
        <time>2026-08-27T14:01:33.376Z</time>
      </trkpt>
      <trkpt lat="51.600973" lon="7.543994">
        <ele>54.483776</ele>
        <time>2026-08-27T14:01:40.621Z</time>
      </trkpt>
      <trkpt lat="51.601007" lon="7.543912">
        <ele>54.463587</ele>
        <time>2026-08-27T14:01:41.797Z</time>
      </trkpt>
      <trkpt lat="51.601144" lon="7.543527">
        <ele>54.372728</ele>
        <time>2026-08-27T14:01:47.103Z</time>
      </trkpt>
      <trkpt lat="51.601228" lon="7.543183">
        <ele>54.297037</ele>
        <time>2026-08-27T14:01:51.498Z</time>
      </trkpt>
      <trkpt lat="51.601340" lon="7.542546">
        <ele>54.303489</ele>
        <time>2026-08-27T14:01:59.766Z</time>
      </trkpt>
      <trkpt lat="51.601336" lon="7.540578">
        <ele>54.383131</ele>
        <time>2026-08-27T14:02:27.823Z</time>
      </trkpt>
      <trkpt lat="51.601324" lon="7.540232">
        <ele>54.397155</ele>
        <time>2026-08-27T14:02:33.316Z</time>
      </trkpt>
      <trkpt lat="51.601202" lon="7.539353">
        <ele>54.851523</ele>
        <time>2026-08-27T14:02:47.882Z</time>
      </trkpt>
      <trkpt lat="51.601171" lon="7.538737">
        <ele>55.163973</ele>
        <time>2026-08-27T14:02:57.990Z</time>
      </trkpt>
      <trkpt lat="51.601232" lon="7.538122">
        <ele>55.478837</ele>
        <time>2026-08-27T14:03:08.175Z</time>
      </trkpt>
      <trkpt lat="51.601470" lon="7.536931">
        <ele>55.702227</ele>
        <time>2026-08-27T14:03:27.745Z</time>
      </trkpt>
      <trkpt lat="51.601720" lon="7.535777">
        <ele>55.309406</ele>
        <time>2026-08-27T14:03:44.143Z</time>
      </trkpt>
      <trkpt lat="51.601869" lon="7.535773">
        <ele>55.232293</ele>
        <time>2026-08-27T14:03:47.136Z</time>
      </trkpt>
      <trkpt lat="51.602498" lon="7.535583">
        <ele>54.786829</ele>
        <time>2026-08-27T14:03:59.119Z</time>
      </trkpt>
      <trkpt lat="51.603010" lon="7.535386">
        <ele>53.454595</ele>
        <time>2026-08-27T14:04:08.031Z</time>
      </trkpt>
      <trkpt lat="51.603112" lon="7.535417">
        <ele>53.191899</ele>
        <time>2026-08-27T14:04:09.733Z</time>
      </trkpt>
      <trkpt lat="51.603269" lon="7.535591">
        <ele>52.709536</ele>
        <time>2026-08-27T14:04:12.838Z</time>
      </trkpt>
      <trkpt lat="51.604124" lon="7.536452">
        <ele>50.379663</ele>
        <time>2026-08-27T14:04:29.409Z</time>
      </trkpt>
      <trkpt lat="51.604277" lon="7.536637">
        <ele>50.382029</ele>
        <time>2026-08-27T14:04:32.748Z</time>
      </trkpt>
      <trkpt lat="51.604488" lon="7.537011">
        <ele>50.385908</ele>
        <time>2026-08-27T14:04:38.680Z</time>
      </trkpt>
      <trkpt lat="51.604615" lon="7.537432">
        <ele>50.389501</ele>
        <time>2026-08-27T14:04:45.274Z</time>
      </trkpt>
      <trkpt lat="51.604672" lon="7.537545">
        <ele>50.390619</ele>
        <time>2026-08-27T14:04:47.599Z</time>
      </trkpt>
      <trkpt lat="51.604711" lon="7.537559">
        <ele>50.391113</ele>
        <time>2026-08-27T14:04:48.604Z</time>
      </trkpt>
      <trkpt lat="51.604810" lon="7.537618">
        <ele>50.392418</ele>
        <time>2026-08-27T14:04:51.411Z</time>
      </trkpt>
      <trkpt lat="51.605074" lon="7.537762">
        <ele>50.395864</ele>
        <time>2026-08-27T14:05:03.356Z</time>
      </trkpt>
      <trkpt lat="51.605638" lon="7.538056">
        <ele>50.537413</ele>
        <time>2026-08-27T14:05:20.902Z</time>
      </trkpt>
      <trkpt lat="51.606131" lon="7.538255">
        <ele>50.898808</ele>
        <time>2026-08-27T14:05:35.276Z</time>
      </trkpt>
      <trkpt lat="51.606976" lon="7.538516">
        <ele>51.510600</ele>
        <time>2026-08-27T14:05:55.876Z</time>
      </trkpt>
      <trkpt lat="51.607197" lon="7.538598">
        <ele>51.671860</ele>
        <time>2026-08-27T14:06:00.601Z</time>
      </trkpt>
      <trkpt lat="51.607725" lon="7.538782">
        <ele>51.550583</ele>
        <time>2026-08-27T14:06:11.715Z</time>
      </trkpt>
      <trkpt lat="51.607836" lon="7.538821">
        <ele>51.522851</ele>
        <time>2026-08-27T14:06:14.137Z</time>
      </trkpt>
      <trkpt lat="51.608116" lon="7.538919">
        <ele>51.452909</ele>
        <time>2026-08-27T14:06:20.302Z</time>
      </trkpt>
      <trkpt lat="51.608215" lon="7.538953">
        <ele>51.428200</ele>
        <time>2026-08-27T14:06:22.478Z</time>
      </trkpt>
      <trkpt lat="51.608385" lon="7.539009">
        <ele>51.385845</ele>
        <time>2026-08-27T14:06:26.256Z</time>
      </trkpt>
      <trkpt lat="51.608445" lon="7.537936">
        <ele>51.194106</ele>
        <time>2026-08-27T14:06:40.548Z</time>
      </trkpt>
      <trkpt lat="51.608625" lon="7.537013">
        <ele>50.818075</ele>
        <time>2026-08-27T14:06:53.032Z</time>
      </trkpt>
      <trkpt lat="51.608897" lon="7.536171">
        <ele>50.449174</ele>
        <time>2026-08-27T14:07:04.531Z</time>
      </trkpt>
      <trkpt lat="51.608955" lon="7.536215">
        <ele>50.409047</ele>
        <time>2026-08-27T14:07:06.684Z</time>
      </trkpt>
      <trkpt lat="51.609007" lon="7.536241">
        <ele>50.374968</ele>
        <time>2026-08-27T14:07:08.094Z</time>
      </trkpt>
      <trkpt lat="51.609361" lon="7.535287">
        <ele>50.174555</ele>
        <time>2026-08-27T14:07:21.787Z</time>
      </trkpt>
      <trkpt lat="51.609515" lon="7.534658">
        <ele>50.265587</ele>
        <time>2026-08-27T14:07:31.135Z</time>
      </trkpt>
      <trkpt lat="51.609568" lon="7.534332">
        <ele>50.310959</ele>
        <time>2026-08-27T14:07:35.995Z</time>
      </trkpt>
      <trkpt lat="51.609616" lon="7.533605">
        <ele>50.409394</ele>
        <time>2026-08-27T14:07:47.192Z</time>
      </trkpt>
      <trkpt lat="51.609594" lon="7.533083">
        <ele>50.479837</ele>
        <time>2026-08-27T14:07:55.640Z</time>
      </trkpt>
      <trkpt lat="51.609562" lon="7.532847">
        <ele>50.521145</ele>
        <time>2026-08-27T14:07:59.557Z</time>
      </trkpt>
      <trkpt lat="51.609256" lon="7.530601">
        <ele>51.197190</ele>
        <time>2026-08-27T14:08:35.807Z</time>
      </trkpt>
      <trkpt lat="51.609216" lon="7.529999">
        <ele>51.340647</ele>
        <time>2026-08-27T14:08:44.753Z</time>
      </trkpt>
      <trkpt lat="51.609187" lon="7.529865">
        <ele>51.305403</ele>
        <time>2026-08-27T14:08:46.803Z</time>
      </trkpt>
      <trkpt lat="51.609148" lon="7.529662">
        <ele>51.252628</ele>
        <time>2026-08-27T14:08:49.839Z</time>
      </trkpt>
      <trkpt lat="51.609119" lon="7.529434">
        <ele>51.194826</ele>
        <time>2026-08-27T14:08:53.167Z</time>
      </trkpt>
      <trkpt lat="51.609564" lon="7.529526">
        <ele>51.015398</ele>
        <time>2026-08-27T14:09:09.685Z</time>
      </trkpt>
      <trkpt lat="51.609948" lon="7.529641">
        <ele>50.859193</ele>
        <time>2026-08-27T14:09:23.478Z</time>
      </trkpt>
      <trkpt lat="51.610112" lon="7.529727">
        <ele>50.790215</ele>
        <time>2026-08-27T14:09:29.390Z</time>
      </trkpt>
      <trkpt lat="51.610117" lon="7.529685">
        <ele>50.779594</ele>
        <time>2026-08-27T14:09:30.312Z</time>
      </trkpt>
      <trkpt lat="51.610170" lon="7.529267">
        <ele>50.673638</ele>
        <time>2026-08-27T14:09:39.185Z</time>
      </trkpt>
      <trkpt lat="51.610173" lon="7.529244">
        <ele>50.667801</ele>
        <time>2026-08-27T14:09:39.660Z</time>
      </trkpt>
      <trkpt lat="51.610370" lon="7.529285">
        <ele>50.552216</ele>
        <time>2026-08-27T14:09:43.891Z</time>
      </trkpt>
      <trkpt lat="51.610542" lon="7.529244">
        <ele>50.431155</ele>
        <time>2026-08-27T14:09:47.633Z</time>
      </trkpt>
      <trkpt lat="51.610738" lon="7.529113">
        <ele>50.283401</ele>
        <time>2026-08-27T14:09:52.231Z</time>
      </trkpt>
      <trkpt lat="51.611210" lon="7.528629">
        <ele>49.893795</ele>
        <time>2026-08-27T14:10:04.531Z</time>
      </trkpt>
      <trkpt lat="51.611778" lon="7.528325">
        <ele>49.477051</ele>
        <time>2026-08-27T14:10:18.027Z</time>
      </trkpt>
      <trkpt lat="51.613300" lon="7.527510">
        <ele>49.709602</ele>
        <time>2026-08-27T14:10:59.031Z</time>
      </trkpt>
      <trkpt lat="51.613492" lon="7.527243">
        <ele>49.765593</ele>
        <time>2026-08-27T14:11:05.959Z</time>
      </trkpt>
      <trkpt lat="51.613567" lon="7.527092">
        <ele>49.822984</ele>
        <time>2026-08-27T14:11:09.306Z</time>
      </trkpt>
      <trkpt lat="51.613604" lon="7.526944">
        <ele>49.910543</ele>
        <time>2026-08-27T14:11:11.977Z</time>
      </trkpt>
      <trkpt lat="51.613610" lon="7.526661">
        <ele>50.065947</ele>
        <time>2026-08-27T14:11:16.610Z</time>
      </trkpt>
      <trkpt lat="51.613681" lon="7.526688">
        <ele>50.130422</ele>
        <time>2026-08-27T14:11:18.326Z</time>
      </trkpt>
      <trkpt lat="51.614328" lon="7.526697">
        <ele>50.702265</ele>
        <time>2026-08-27T14:11:33.007Z</time>
      </trkpt>
      <trkpt lat="51.614350" lon="7.526523">
        <ele>50.799716</ele>
        <time>2026-08-27T14:11:36.366Z</time>
      </trkpt>
      <trkpt lat="51.614571" lon="7.526577">
        <ele>50.997272</ele>
        <time>2026-08-27T14:11:43.266Z</time>
      </trkpt>
      <trkpt lat="51.615124" lon="7.526698">
        <ele>51.396724</ele>
        <time>2026-08-27T14:12:00.851Z</time>
      </trkpt>
      <trkpt lat="51.615265" lon="7.526733">
        <ele>51.423482</ele>
        <time>2026-08-27T14:12:04.924Z</time>
      </trkpt>
      <trkpt lat="51.615725" lon="7.526872">
        <ele>51.511264</ele>
        <time>2026-08-27T14:12:17.436Z</time>
      </trkpt>
      <trkpt lat="51.615726" lon="7.527102">
        <ele>51.538050</ele>
        <time>2026-08-27T14:12:20.940Z</time>
      </trkpt>
      <trkpt lat="51.615727" lon="7.527290">
        <ele>51.559946</ele>
        <time>2026-08-27T14:12:23.787Z</time>
      </trkpt>
      <trkpt lat="51.615727" lon="7.527417">
        <ele>51.574736</ele>
        <time>2026-08-27T14:12:25.655Z</time>
      </trkpt>
      <trkpt lat="51.615735" lon="7.527866">
        <ele>51.627048</ele>
        <time>2026-08-27T14:12:32.335Z</time>
      </trkpt>
      <trkpt lat="51.615721" lon="7.527982">
        <ele>51.640811</ele>
        <time>2026-08-27T14:12:33.871Z</time>
      </trkpt>
      <trkpt lat="51.615667" lon="7.528041">
        <ele>51.653049</ele>
        <time>2026-08-27T14:12:35.142Z</time>
      </trkpt>
      <trkpt lat="51.615582" lon="7.528058">
        <ele>51.669114</ele>
        <time>2026-08-27T14:12:36.770Z</time>
      </trkpt>
      <trkpt lat="51.615268" lon="7.528062">
        <ele>51.566545</ele>
        <time>2026-08-27T14:12:42.228Z</time>
      </trkpt>
      <trkpt lat="51.615211" lon="7.528064">
        <ele>51.487312</ele>
        <time>2026-08-27T14:12:43.140Z</time>
      </trkpt>
      <trkpt lat="51.615053" lon="7.528067">
        <ele>51.267720</ele>
        <time>2026-08-27T14:12:45.741Z</time>
      </trkpt>
      <trkpt lat="51.614787" lon="7.528076">
        <ele>50.897972</ele>
        <time>2026-08-27T14:12:50.205Z</time>
      </trkpt>
      <trkpt lat="51.614783" lon="7.527951">
        <ele>50.789961</ele>
        <time>2026-08-27T14:12:51.599Z</time>
      </trkpt>
      <trkpt lat="51.614965" lon="7.527626">
        <ele>50.412298</ele>
        <time>2026-08-27T14:12:58.157Z</time>
      </trkpt>
      <trkpt lat="51.614988" lon="7.527363">
        <ele>50.183105</ele>
        <time>2026-08-27T14:13:02.261Z</time>
      </trkpt>
      <trkpt lat="51.614998" lon="7.527247">
        <ele>50.082044</ele>
        <time>2026-08-27T14:13:04.132Z</time>
      </trkpt>
      <trkpt lat="51.615026" lon="7.526925">
        <ele>49.801466</ele>
        <time>2026-08-27T14:13:09.513Z</time>
      </trkpt>
      <trkpt lat="51.615011" lon="7.526878">
        <ele>49.755865</ele>
        <time>2026-08-27T14:13:10.407Z</time>
      </trkpt>
      <trkpt lat="51.614982" lon="7.526770">
        <ele>49.654326</ele>
        <time>2026-08-27T14:13:13.032Z</time>
      </trkpt>
      <trkpt lat="51.615021" lon="7.526399">
        <ele>49.329621</ele>
        <time>2026-08-27T14:13:21.534Z</time>
      </trkpt>
      <trkpt lat="51.615063" lon="7.526305">
        <ele>49.229687</ele>
        <time>2026-08-27T14:13:24.155Z</time>
      </trkpt>
      <trkpt lat="51.615116" lon="7.525766">
        <ele>49.314219</ele>
        <time>2026-08-27T14:13:36.693Z</time>
      </trkpt>
      <trkpt lat="51.615146" lon="7.525732">
        <ele>49.326106</ele>
        <time>2026-08-27T14:13:38.039Z</time>
      </trkpt>
      <trkpt lat="51.615227" lon="7.525047">
        <ele>49.466417</ele>
        <time>2026-08-27T14:13:50.671Z</time>
      </trkpt>
      <trkpt lat="51.615401" lon="7.524286">
        <ele>49.629594</ele>
        <time>2026-08-27T14:14:07.126Z</time>
      </trkpt>
      <trkpt lat="51.615496" lon="7.524052">
        <ele>49.685850</ele>
        <time>2026-08-27T14:14:12.758Z</time>
      </trkpt>
      <trkpt lat="51.615521" lon="7.523774">
        <ele>49.742371</ele>
        <time>2026-08-27T14:14:18.309Z</time>
      </trkpt>
      <trkpt lat="51.615622" lon="7.523208">
        <ele>49.787582</ele>
        <time>2026-08-27T14:14:29.630Z</time>
      </trkpt>
      <trkpt lat="51.615669" lon="7.522896">
        <ele>49.783393</ele>
        <time>2026-08-27T14:14:35.687Z</time>
      </trkpt>
      <trkpt lat="51.615724" lon="7.522444">
        <ele>49.777382</ele>
        <time>2026-08-27T14:14:44.305Z</time>
      </trkpt>
      <trkpt lat="51.615846" lon="7.521386">
        <ele>49.763341</ele>
        <time>2026-08-27T14:15:01.208Z</time>
      </trkpt>
      <trkpt lat="51.615864" lon="7.521232">
        <ele>49.761296</ele>
        <time>2026-08-27T14:15:03.394Z</time>
      </trkpt>
      <trkpt lat="51.615877" lon="7.520878">
        <ele>49.756669</ele>
        <time>2026-08-27T14:15:08.176Z</time>
      </trkpt>
      <trkpt lat="51.615876" lon="7.520469">
        <ele>49.682267</ele>
        <time>2026-08-27T14:15:13.744Z</time>
      </trkpt>
      <trkpt lat="51.615868" lon="7.520268">
        <ele>49.617376</ele>
        <time>2026-08-27T14:15:16.505Z</time>
      </trkpt>
      <trkpt lat="51.615811" lon="7.519623">
        <ele>49.407479</ele>
        <time>2026-08-27T14:15:25.525Z</time>
      </trkpt>
      <trkpt lat="51.615875" lon="7.519266">
        <ele>49.287764</ele>
        <time>2026-08-27T14:15:30.817Z</time>
      </trkpt>
      <trkpt lat="51.615874" lon="7.519173">
        <ele>49.257797</ele>
        <time>2026-08-27T14:15:32.112Z</time>
      </trkpt>
      <trkpt lat="51.615875" lon="7.519108">
        <ele>49.236850</ele>
        <time>2026-08-27T14:15:32.963Z</time>
      </trkpt>
      <trkpt lat="51.615877" lon="7.519014">
        <ele>49.206547</ele>
        <time>2026-08-27T14:15:34.183Z</time>
      </trkpt>
      <trkpt lat="51.616143" lon="7.517354">
        <ele>48.689474</ele>
        <time>2026-08-27T14:15:56.451Z</time>
      </trkpt>
      <trkpt lat="51.616214" lon="7.516881">
        <ele>48.565839</ele>
        <time>2026-08-27T14:16:02.827Z</time>
      </trkpt>
      <trkpt lat="51.616278" lon="7.515668">
        <ele>48.256545</ele>
        <time>2026-08-27T14:16:18.693Z</time>
      </trkpt>
      <trkpt lat="51.616305" lon="7.515471">
        <ele>48.205289</ele>
        <time>2026-08-27T14:16:21.250Z</time>
      </trkpt>
      <trkpt lat="51.616394" lon="7.514904">
        <ele>48.061194</ele>
        <time>2026-08-27T14:16:28.671Z</time>
      </trkpt>
      <trkpt lat="51.616505" lon="7.514265">
        <ele>47.919332</ele>
        <time>2026-08-27T14:16:37.222Z</time>
      </trkpt>
      <trkpt lat="51.616613" lon="7.513619">
        <ele>47.776301</ele>
        <time>2026-08-27T14:16:45.781Z</time>
      </trkpt>
      <trkpt lat="51.616699" lon="7.513423">
        <ele>47.724991</ele>
        <time>2026-08-27T14:16:48.870Z</time>
      </trkpt>
      <trkpt lat="51.616925" lon="7.513053">
        <ele>47.614027</ele>
        <time>2026-08-27T14:16:55.602Z</time>
      </trkpt>
      <trkpt lat="51.617011" lon="7.512969">
        <ele>47.579395</ele>
        <time>2026-08-27T14:16:57.752Z</time>
      </trkpt>
      <trkpt lat="51.617186" lon="7.512881">
        <ele>47.516270</ele>
        <time>2026-08-27T14:17:01.698Z</time>
      </trkpt>
      <trkpt lat="51.617394" lon="7.512837">
        <ele>47.453655</ele>
        <time>2026-08-27T14:17:06.338Z</time>
      </trkpt>
      <trkpt lat="51.618589" lon="7.512359">
        <ele>47.217624</ele>
        <time>2026-08-27T14:17:37.244Z</time>
      </trkpt>
      <trkpt lat="51.619184" lon="7.512006">
        <ele>47.021733</ele>
        <time>2026-08-27T14:17:51.738Z</time>
      </trkpt>
      <trkpt lat="51.619785" lon="7.511500">
        <ele>46.503204</ele>
        <time>2026-08-27T14:18:06.159Z</time>
      </trkpt>
      <trkpt lat="51.620240" lon="7.510931">
        <ele>46.062753</ele>
        <time>2026-08-27T14:18:18.545Z</time>
      </trkpt>
      <trkpt lat="51.620308" lon="7.510803">
        <ele>45.982780</ele>
        <time>2026-08-27T14:18:20.865Z</time>
      </trkpt>
      <trkpt lat="51.620573" lon="7.510257">
        <ele>45.803605</ele>
        <time>2026-08-27T14:18:31.014Z</time>
      </trkpt>
      <trkpt lat="51.620823" lon="7.509609">
        <ele>46.031831</ele>
        <time>2026-08-27T14:18:43.281Z</time>
      </trkpt>
      <trkpt lat="51.620928" lon="7.509135">
        <ele>46.182383</ele>
        <time>2026-08-27T14:18:51.896Z</time>
      </trkpt>
      <trkpt lat="51.621087" lon="7.508209">
        <ele>46.469792</ele>
        <time>2026-08-27T14:19:08.739Z</time>
      </trkpt>
      <trkpt lat="51.621173" lon="7.507112">
        <ele>46.748062</ele>
        <time>2026-08-27T14:19:27.927Z</time>
      </trkpt>
      <trkpt lat="51.621272" lon="7.504446">
        <ele>47.252444</ele>
        <time>2026-08-27T14:20:10.303Z</time>
      </trkpt>
      <trkpt lat="51.621320" lon="7.503808">
        <ele>47.276670</ele>
        <time>2026-08-27T14:20:20.231Z</time>
      </trkpt>
      <trkpt lat="51.621439" lon="7.503078">
        <ele>47.305120</ele>
        <time>2026-08-27T14:20:32.013Z</time>
      </trkpt>
      <trkpt lat="51.621587" lon="7.502509">
        <ele>47.328376</ele>
        <time>2026-08-27T14:20:41.417Z</time>
      </trkpt>
      <trkpt lat="51.621977" lon="7.501755">
        <ele>47.303882</ele>
        <time>2026-08-27T14:20:56.180Z</time>
      </trkpt>
      <trkpt lat="51.622252" lon="7.501140">
        <ele>47.239556</ele>
        <time>2026-08-27T14:21:13.506Z</time>
      </trkpt>
      <trkpt lat="51.622420" lon="7.500642">
        <ele>47.191453</ele>
        <time>2026-08-27T14:21:26.369Z</time>
      </trkpt>
      <trkpt lat="51.622468" lon="7.500447">
        <ele>47.173649</ele>
        <time>2026-08-27T14:21:29.502Z</time>
      </trkpt>
      <trkpt lat="51.622578" lon="7.499673">
        <ele>47.106259</ele>
        <time>2026-08-27T14:21:41.233Z</time>
      </trkpt>
      <trkpt lat="51.622726" lon="7.498864">
        <ele>47.094368</ele>
        <time>2026-08-27T14:21:54.003Z</time>
      </trkpt>
      <trkpt lat="51.623003" lon="7.497834">
        <ele>47.085396</ele>
        <time>2026-08-27T14:22:11.247Z</time>
      </trkpt>
      <trkpt lat="51.623076" lon="7.497592">
        <ele>47.083245</ele>
        <time>2026-08-27T14:22:15.377Z</time>
      </trkpt>
      <trkpt lat="51.623387" lon="7.496559">
        <ele>47.155194</ele>
        <time>2026-08-27T14:22:33.100Z</time>
      </trkpt>
      <trkpt lat="51.623509" lon="7.495803">
        <ele>47.300237</ele>
        <time>2026-08-27T14:22:45.436Z</time>
      </trkpt>
      <trkpt lat="51.623544" lon="7.495287">
        <ele>47.396620</ele>
        <time>2026-08-27T14:22:53.761Z</time>
      </trkpt>
      <trkpt lat="51.623535" lon="7.495080">
        <ele>47.435151</ele>
        <time>2026-08-27T14:22:57.182Z</time>
      </trkpt>
      <trkpt lat="51.623515" lon="7.494656">
        <ele>47.514108</ele>
        <time>2026-08-27T14:23:04.333Z</time>
      </trkpt>
      <trkpt lat="51.623353" lon="7.493679">
        <ele>47.685977</ele>
        <time>2026-08-27T14:23:21.165Z</time>
      </trkpt>
      <trkpt lat="51.623484" lon="7.493615">
        <ele>47.719393</ele>
        <time>2026-08-27T14:23:24.450Z</time>
      </trkpt>
      <trkpt lat="51.623735" lon="7.493421">
        <ele>47.787351</ele>
        <time>2026-08-27T14:23:31.036Z</time>
      </trkpt>
      <trkpt lat="51.623661" lon="7.493925">
        <ele>47.865837</ele>
        <time>2026-08-27T14:23:39.299Z</time>
      </trkpt>
      <trkpt lat="51.623649" lon="7.494212">
        <ele>47.909428</ele>
        <time>2026-08-27T14:23:43.818Z</time>
      </trkpt>
      <trkpt lat="51.623716" lon="7.494794">
        <ele>47.999131</ele>
        <time>2026-08-27T14:23:53.153Z</time>
      </trkpt>
      <trkpt lat="51.623730" lon="7.495438">
        <ele>48.097223</ele>
        <time>2026-08-27T14:24:02.843Z</time>
      </trkpt>
      <trkpt lat="51.623709" lon="7.495883">
        <ele>48.165555</ele>
        <time>2026-08-27T14:24:09.587Z</time>
      </trkpt>
      <trkpt lat="51.623732" lon="7.496420">
        <ele>48.247972</ele>
        <time>2026-08-27T14:24:22.183Z</time>
      </trkpt>
      <trkpt lat="51.623829" lon="7.496708">
        <ele>48.298139</ele>
        <time>2026-08-27T14:24:29.954Z</time>
      </trkpt>
      <trkpt lat="51.624002" lon="7.496983">
        <ele>48.358084</ele>
        <time>2026-08-27T14:24:39.309Z</time>
      </trkpt>
      <trkpt lat="51.624565" lon="7.497396">
        <ele>48.529325</ele>
        <time>2026-08-27T14:24:58.612Z</time>
      </trkpt>
      <trkpt lat="51.624687" lon="7.497458">
        <ele>48.607510</ele>
        <time>2026-08-27T14:25:02.596Z</time>
      </trkpt>
      <trkpt lat="51.625636" lon="7.498598">
        <ele>49.331036</ele>
        <time>2026-08-27T14:25:39.742Z</time>
      </trkpt>
      <trkpt lat="51.625405" lon="7.499536">
        <ele>49.765753</ele>
        <time>2026-08-27T14:25:56.183Z</time>
      </trkpt>
      <trkpt lat="51.625517" lon="7.499725">
        <ele>49.908969</ele>
        <time>2026-08-27T14:26:00.456Z</time>
      </trkpt>
      <trkpt lat="51.625794" lon="7.500716">
        <ele>50.504675</ele>
        <time>2026-08-27T14:26:18.110Z</time>
      </trkpt>
      <trkpt lat="51.625864" lon="7.500964">
        <ele>50.653999</ele>
        <time>2026-08-27T14:26:22.573Z</time>
      </trkpt>
      <trkpt lat="51.625954" lon="7.501289">
        <ele>50.849056</ele>
        <time>2026-08-27T14:26:28.428Z</time>
      </trkpt>
      <trkpt lat="51.626008" lon="7.501469">
        <ele>50.958633</ele>
        <time>2026-08-27T14:26:31.618Z</time>
      </trkpt>
      <trkpt lat="51.626331" lon="7.502561">
        <ele>51.527677</ele>
        <time>2026-08-27T14:26:50.692Z</time>
      </trkpt>
      <trkpt lat="51.626451" lon="7.502967">
        <ele>51.721060</ele>
        <time>2026-08-27T14:26:57.558Z</time>
      </trkpt>
      <trkpt lat="51.626482" lon="7.503072">
        <ele>51.771063</ele>
        <time>2026-08-27T14:26:59.303Z</time>
      </trkpt>
      <trkpt lat="51.626564" lon="7.503368">
        <ele>51.910459</ele>
        <time>2026-08-27T14:27:04.308Z</time>
      </trkpt>
      <trkpt lat="51.626646" lon="7.503662">
        <ele>52.049070</ele>
        <time>2026-08-27T14:27:09.285Z</time>
      </trkpt>
      <trkpt lat="51.626953" lon="7.505124">
        <ele>52.580449</ele>
        <time>2026-08-27T14:27:32.956Z</time>
      </trkpt>
      <trkpt lat="51.627055" lon="7.505573">
        <ele>52.689354</ele>
        <time>2026-08-27T14:27:40.166Z</time>
      </trkpt>
      <trkpt lat="51.627150" lon="7.505995">
        <ele>52.791601</ele>
        <time>2026-08-27T14:27:46.809Z</time>
      </trkpt>
      <trkpt lat="51.627228" lon="7.506475">
        <ele>52.904618</ele>
        <time>2026-08-27T14:27:53.987Z</time>
      </trkpt>
      <trkpt lat="51.627252" lon="7.506576">
        <ele>52.929251</ele>
        <time>2026-08-27T14:27:55.559Z</time>
      </trkpt>
      <trkpt lat="51.627318" lon="7.506763">
        <ele>52.978249</ele>
        <time>2026-08-27T14:27:58.653Z</time>
      </trkpt>
      <trkpt lat="51.627460" lon="7.507064">
        <ele>53.064361</ele>
        <time>2026-08-27T14:28:04.014Z</time>
      </trkpt>
      <trkpt lat="51.627589" lon="7.507234">
        <ele>53.098067</ele>
        <time>2026-08-27T14:28:07.713Z</time>
      </trkpt>
      <trkpt lat="51.627664" lon="7.507290">
        <ele>53.104017</ele>
        <time>2026-08-27T14:28:09.567Z</time>
      </trkpt>
      <trkpt lat="51.627753" lon="7.507301">
        <ele>53.110441</ele>
        <time>2026-08-27T14:28:11.567Z</time>
      </trkpt>
      <trkpt lat="51.627833" lon="7.507311">
        <ele>53.116216</ele>
        <time>2026-08-27T14:28:13.376Z</time>
      </trkpt>
      <trkpt lat="51.627921" lon="7.507391">
        <ele>53.123489</ele>
        <time>2026-08-27T14:28:15.639Z</time>
      </trkpt>
      <trkpt lat="51.628138" lon="7.507770">
        <ele>53.146524</ele>
        <time>2026-08-27T14:28:22.818Z</time>
      </trkpt>
      <trkpt lat="51.628265" lon="7.508044">
        <ele>53.161802</ele>
        <time>2026-08-27T14:28:27.508Z</time>
      </trkpt>
      <trkpt lat="51.628340" lon="7.508289">
        <ele>53.174007</ele>
        <time>2026-08-27T14:28:31.287Z</time>
      </trkpt>
      <trkpt lat="51.628369" lon="7.508663">
        <ele>53.190846</ele>
        <time>2026-08-27T14:28:36.535Z</time>
      </trkpt>
      <trkpt lat="51.628362" lon="7.509520">
        <ele>53.253003</ele>
        <time>2026-08-27T14:28:48.573Z</time>
      </trkpt>
      <trkpt lat="51.628297" lon="7.510837">
        <ele>53.481417</ele>
        <time>2026-08-27T14:29:07.319Z</time>
      </trkpt>
      <trkpt lat="51.628293" lon="7.510904">
        <ele>53.493054</ele>
        <time>2026-08-27T14:29:08.281Z</time>
      </trkpt>
      <trkpt lat="51.627943" lon="7.511009">
        <ele>53.592209</ele>
        <time>2026-08-27T14:29:16.953Z</time>
      </trkpt>
      <trkpt lat="51.628065" lon="7.512484">
        <ele>53.925006</ele>
        <time>2026-08-27T14:29:39.400Z</time>
      </trkpt>
      <trkpt lat="51.628102" lon="7.512915">
        <ele>54.044720</ele>
        <time>2026-08-27T14:29:45.984Z</time>
      </trkpt>
      <trkpt lat="51.628143" lon="7.513491">
        <ele>54.204239</ele>
        <time>2026-08-27T14:29:54.723Z</time>
      </trkpt>
      <trkpt lat="51.628150" lon="7.513556">
        <ele>54.222390</ele>
        <time>2026-08-27T14:29:55.748Z</time>
      </trkpt>
      <trkpt lat="51.628254" lon="7.514174">
        <ele>54.398564</ele>
        <time>2026-08-27T14:30:05.257Z</time>
      </trkpt>
      <trkpt lat="51.628276" lon="7.514333">
        <ele>54.443384</ele>
        <time>2026-08-27T14:30:07.688Z</time>
      </trkpt>
      <trkpt lat="51.628361" lon="7.514997">
        <ele>54.525545</ele>
        <time>2026-08-27T14:30:17.632Z</time>
      </trkpt>
      <trkpt lat="51.628446" lon="7.515659">
        <ele>54.536553</ele>
        <time>2026-08-27T14:30:27.067Z</time>
      </trkpt>
      <trkpt lat="51.628451" lon="7.515696">
        <ele>54.537170</ele>
        <time>2026-08-27T14:30:27.599Z</time>
      </trkpt>
      <trkpt lat="51.628541" lon="7.516416">
        <ele>54.549131</ele>
        <time>2026-08-27T14:30:37.688Z</time>
      </trkpt>
      <trkpt lat="51.628544" lon="7.516443">
        <ele>54.549577</ele>
        <time>2026-08-27T14:30:38.074Z</time>
      </trkpt>
      <trkpt lat="51.628676" lon="7.517478">
        <ele>54.564994</ele>
        <time>2026-08-27T14:30:52.190Z</time>
      </trkpt>
      <trkpt lat="51.628800" lon="7.518450">
        <ele>54.534523</ele>
        <time>2026-08-27T14:31:05.740Z</time>
      </trkpt>
      <trkpt lat="51.628858" lon="7.518890">
        <ele>54.520711</ele>
        <time>2026-08-27T14:31:12.004Z</time>
      </trkpt>
      <trkpt lat="51.628967" lon="7.519644">
        <ele>54.496939</ele>
        <time>2026-08-27T14:31:22.725Z</time>
      </trkpt>
      <trkpt lat="51.629045" lon="7.519644">
        <ele>54.493081</ele>
        <time>2026-08-27T14:31:24.457Z</time>
      </trkpt>
      <trkpt lat="51.629275" lon="7.519875">
        <ele>54.479674</ele>
        <time>2026-08-27T14:31:30.472Z</time>
      </trkpt>
      <trkpt lat="51.629351" lon="7.519946">
        <ele>54.484026</ele>
        <time>2026-08-27T14:31:32.430Z</time>
      </trkpt>
      <trkpt lat="51.629488" lon="7.519922">
        <ele>54.509021</ele>
        <time>2026-08-27T14:31:35.504Z</time>
      </trkpt>
      <trkpt lat="51.630096" lon="7.519674">
        <ele>54.622774</ele>
        <time>2026-08-27T14:31:49.090Z</time>
      </trkpt>
      <trkpt lat="51.630420" lon="7.519542">
        <ele>54.683388</ele>
        <time>2026-08-27T14:31:56.462Z</time>
      </trkpt>
      <trkpt lat="51.630805" lon="7.519342">
        <ele>54.756757</ele>
        <time>2026-08-27T14:32:05.852Z</time>
      </trkpt>
      <trkpt lat="51.631270" lon="7.519118">
        <ele>55.034762</ele>
        <time>2026-08-27T14:32:19.300Z</time>
      </trkpt>
      <trkpt lat="51.631405" lon="7.518975">
        <ele>55.198631</ele>
        <time>2026-08-27T14:32:23.904Z</time>
      </trkpt>
      <trkpt lat="51.631530" lon="7.518894">
        <ele>55.335284</ele>
        <time>2026-08-27T14:32:27.775Z</time>
      </trkpt>
      <trkpt lat="51.631974" lon="7.518710">
        <ele>55.800272</ele>
        <time>2026-08-27T14:32:41.249Z</time>
      </trkpt>
      <trkpt lat="51.632238" lon="7.518606">
        <ele>56.075923</ele>
        <time>2026-08-27T14:32:49.305Z</time>
      </trkpt>
      <trkpt lat="51.633235" lon="7.518200">
        <ele>57.239842</ele>
        <time>2026-08-27T14:33:19.286Z</time>
      </trkpt>
      <trkpt lat="51.633334" lon="7.518122">
        <ele>57.379127</ele>
        <time>2026-08-27T14:33:22.454Z</time>
      </trkpt>
      <trkpt lat="51.633570" lon="7.517843">
        <ele>57.749090</ele>
        <time>2026-08-27T14:33:31.015Z</time>
      </trkpt>
      <trkpt lat="51.633707" lon="7.517651">
        <ele>57.978585</ele>
        <time>2026-08-27T14:33:36.489Z</time>
      </trkpt>
      <trkpt lat="51.634110" lon="7.517224">
        <ele>58.588205</ele>
        <time>2026-08-27T14:33:51.321Z</time>
      </trkpt>
      <trkpt lat="51.634388" lon="7.516969">
        <ele>58.985920</ele>
        <time>2026-08-27T14:34:01.036Z</time>
      </trkpt>
      <trkpt lat="51.634788" lon="7.516665">
        <ele>59.504613</ele>
        <time>2026-08-27T14:34:14.026Z</time>
      </trkpt>
      <trkpt lat="51.634759" lon="7.516552">
        <ele>59.593623</ele>
        <time>2026-08-27T14:34:17.107Z</time>
      </trkpt>
      <trkpt lat="51.634751" lon="7.516524">
        <ele>59.616061</ele>
        <time>2026-08-27T14:34:17.652Z</time>
      </trkpt>
      <trkpt lat="51.634952" lon="7.516382">
        <ele>59.873459</ele>
        <time>2026-08-27T14:34:23.922Z</time>
      </trkpt>
      <trkpt lat="51.635561" lon="7.516070">
        <ele>60.622932</ele>
        <time>2026-08-27T14:34:42.259Z</time>
      </trkpt>
      <trkpt lat="51.635621" lon="7.515995">
        <ele>60.711995</ele>
        <time>2026-08-27T14:34:44.456Z</time>
      </trkpt>
      <trkpt lat="51.635849" lon="7.516281">
        <ele>61.063034</ele>
        <time>2026-08-27T14:34:52.360Z</time>
      </trkpt>
      <trkpt lat="51.636123" lon="7.516662">
        <ele>61.615038</ele>
        <time>2026-08-27T14:35:02.723Z</time>
      </trkpt>
      <trkpt lat="51.636277" lon="7.517017">
        <ele>62.025025</ele>
        <time>2026-08-27T14:35:10.558Z</time>
      </trkpt>
      <trkpt lat="51.636341" lon="7.517238">
        <ele>62.255874</ele>
        <time>2026-08-27T14:35:14.989Z</time>
      </trkpt>
      <trkpt lat="51.636630" lon="7.517926">
        <ele>63.042266</ele>
        <time>2026-08-27T14:35:31.619Z</time>
      </trkpt>
      <trkpt lat="51.637606" lon="7.520610">
        <ele>65.657220</ele>
        <time>2026-08-27T14:36:28.924Z</time>
      </trkpt>
      <trkpt lat="51.637659" lon="7.520835">
        <ele>65.851398</ele>
        <time>2026-08-27T14:36:33.351Z</time>
      </trkpt>
      <trkpt lat="51.638770" lon="7.527497">
        <ele>71.144782</ele>
        <time>2026-08-27T14:38:44.042Z</time>
      </trkpt>
      <trkpt lat="51.638861" lon="7.528091">
        <ele>71.101914</ele>
        <time>2026-08-27T14:38:53.054Z</time>
      </trkpt>
      <trkpt lat="51.638855" lon="7.528474">
        <ele>71.075071</ele>
        <time>2026-08-27T14:38:58.282Z</time>
      </trkpt>
      <trkpt lat="51.638612" lon="7.528369">
        <ele>71.046668</ele>
        <time>2026-08-27T14:39:03.088Z</time>
      </trkpt>
      <trkpt lat="51.637861" lon="7.528228">
        <ele>70.930238</ele>
        <time>2026-08-27T14:39:17.363Z</time>
      </trkpt>
      <trkpt lat="51.637629" lon="7.530596">
        <ele>70.605144</ele>
        <time>2026-08-27T14:39:50.653Z</time>
      </trkpt>
      <trkpt lat="51.637617" lon="7.530767">
        <ele>70.473077</ele>
        <time>2026-08-27T14:39:53.407Z</time>
      </trkpt>
      <trkpt lat="51.637553" lon="7.531772">
        <ele>69.697757</ele>
        <time>2026-08-27T14:40:07.606Z</time>
      </trkpt>
      <trkpt lat="51.637496" lon="7.532320">
        <ele>69.271338</ele>
        <time>2026-08-27T14:40:14.129Z</time>
      </trkpt>
      <trkpt lat="51.637439" lon="7.532880">
        <ele>68.835833</ele>
        <time>2026-08-27T14:40:20.335Z</time>
      </trkpt>
      <trkpt lat="51.636668" lon="7.533204">
        <ele>67.130156</ele>
        <time>2026-08-27T14:40:33.428Z</time>
      </trkpt>
      <trkpt lat="51.636674" lon="7.533328">
        <ele>66.909360</ele>
        <time>2026-08-27T14:40:34.673Z</time>
      </trkpt>
      <trkpt lat="51.636541" lon="7.534656">
        <ele>64.521362</ele>
        <time>2026-08-27T14:40:47.926Z</time>
      </trkpt>
      <trkpt lat="51.636532" lon="7.534752">
        <ele>64.349007</ele>
        <time>2026-08-27T14:40:48.946Z</time>
      </trkpt>
      <trkpt lat="51.636400" lon="7.536073">
        <ele>62.977838</ele>
        <time>2026-08-27T14:41:04.040Z</time>
      </trkpt>
      <trkpt lat="51.636382" lon="7.536504">
        <ele>62.812161</ele>
        <time>2026-08-27T14:41:09.281Z</time>
      </trkpt>
      <trkpt lat="51.636435" lon="7.536865">
        <ele>62.669884</ele>
        <time>2026-08-27T14:41:13.829Z</time>
      </trkpt>
      <trkpt lat="51.636444" lon="7.536918">
        <ele>62.648810</ele>
        <time>2026-08-27T14:41:14.523Z</time>
      </trkpt>
      <trkpt lat="51.636544" lon="7.537518">
        <ele>62.410537</ele>
        <time>2026-08-27T14:41:22.631Z</time>
      </trkpt>
      <trkpt lat="51.636743" lon="7.538630">
        <ele>62.477826</ele>
        <time>2026-08-27T14:41:40.461Z</time>
      </trkpt>
      <trkpt lat="51.636805" lon="7.538830">
        <ele>62.640535</ele>
        <time>2026-08-27T14:41:43.836Z</time>
      </trkpt>
      <trkpt lat="51.637647" lon="7.540787">
        <ele>64.403959</ele>
        <time>2026-08-27T14:42:24.376Z</time>
      </trkpt>
      <trkpt lat="51.637715" lon="7.540880">
        <ele>64.534705</ele>
        <time>2026-08-27T14:42:27.228Z</time>
      </trkpt>
      <trkpt lat="51.637800" lon="7.540927">
        <ele>64.666436</ele>
        <time>2026-08-27T14:42:30.097Z</time>
      </trkpt>
      <trkpt lat="51.638794" lon="7.540915">
        <ele>66.123550</ele>
        <time>2026-08-27T14:43:00.130Z</time>
      </trkpt>
      <trkpt lat="51.638850" lon="7.540956">
        <ele>66.213716</ele>
        <time>2026-08-27T14:43:01.850Z</time>
      </trkpt>
      <trkpt lat="51.638889" lon="7.541040">
        <ele>66.309152</ele>
        <time>2026-08-27T14:43:03.666Z</time>
      </trkpt>
      <trkpt lat="51.639131" lon="7.542328">
        <ele>66.675354</ele>
        <time>2026-08-27T14:43:24.034Z</time>
      </trkpt>
      <trkpt lat="51.639142" lon="7.544059">
        <ele>66.153695</ele>
        <time>2026-08-27T14:43:45.144Z</time>
      </trkpt>
      <trkpt lat="51.639184" lon="7.544131">
        <ele>66.123918</ele>
        <time>2026-08-27T14:43:46.312Z</time>
      </trkpt>
      <trkpt lat="51.639403" lon="7.544261">
        <ele>66.007144</ele>
        <time>2026-08-27T14:43:50.715Z</time>
      </trkpt>
      <trkpt lat="51.639585" lon="7.544283">
        <ele>65.856295</ele>
        <time>2026-08-27T14:43:54.148Z</time>
      </trkpt>
      <trkpt lat="51.640132" lon="7.544249">
        <ele>65.403850</ele>
        <time>2026-08-27T14:44:04.559Z</time>
      </trkpt>
      <trkpt lat="51.640319" lon="7.544301">
        <ele>65.247006</ele>
        <time>2026-08-27T14:44:08.185Z</time>
      </trkpt>
      <trkpt lat="51.640481" lon="7.544426">
        <ele>65.098549</ele>
        <time>2026-08-27T14:44:11.659Z</time>
      </trkpt>
      <trkpt lat="51.640598" lon="7.544615">
        <ele>64.961620</ele>
        <time>2026-08-27T14:44:14.892Z</time>
      </trkpt>
      <trkpt lat="51.641180" lon="7.546103">
        <ele>64.112088</ele>
        <time>2026-08-27T14:44:38.231Z</time>
      </trkpt>
      <trkpt lat="51.641858" lon="7.545513">
        <ele>63.546640</ele>
        <time>2026-08-27T14:44:53.828Z</time>
      </trkpt>
      <trkpt lat="51.641981" lon="7.545890">
        <ele>63.352676</ele>
        <time>2026-08-27T14:44:59.489Z</time>
      </trkpt>
      <trkpt lat="51.642081" lon="7.546358">
        <ele>63.113693</ele>
        <time>2026-08-27T14:45:05.918Z</time>
      </trkpt>
      <trkpt lat="51.642119" lon="7.546910">
        <ele>62.818746</ele>
        <time>2026-08-27T14:45:12.894Z</time>
      </trkpt>
      <trkpt lat="51.642448" lon="7.547750">
        <ele>62.291235</ele>
        <time>2026-08-27T14:45:25.112Z</time>
      </trkpt>
      <trkpt lat="51.642699" lon="7.548576">
        <ele>61.802812</ele>
        <time>2026-08-27T14:45:38.255Z</time>
      </trkpt>
      <trkpt lat="51.642901" lon="7.549243">
        <ele>62.626581</ele>
        <time>2026-08-27T14:45:51.681Z</time>
      </trkpt>
      <trkpt lat="51.642973" lon="7.549577">
        <ele>63.314653</ele>
        <time>2026-08-27T14:45:59.147Z</time>
      </trkpt>
      <trkpt lat="51.642996" lon="7.549680">
        <ele>63.527675</ele>
        <time>2026-08-27T14:46:01.486Z</time>
      </trkpt>
      <trkpt lat="51.643053" lon="7.549903">
        <ele>63.997009</ele>
        <time>2026-08-27T14:46:06.950Z</time>
      </trkpt>
      <trkpt lat="51.643232" lon="7.550057">
        <ele>64.633328</ele>
        <time>2026-08-27T14:46:14.743Z</time>
      </trkpt>
      <trkpt lat="51.643318" lon="7.550204">
        <ele>65.026474</ele>
        <time>2026-08-27T14:46:19.704Z</time>
      </trkpt>
      <trkpt lat="51.643995" lon="7.552199">
        <ele>70.433280</ele>
        <time>2026-08-27T14:47:21.025Z</time>
      </trkpt>
      <trkpt lat="51.644405" lon="7.553258">
        <ele>73.976239</ele>
        <time>2026-08-27T14:47:54.314Z</time>
      </trkpt>
      <trkpt lat="51.643945" lon="7.553384">
        <ele>76.097438</ele>
        <time>2026-08-27T14:48:13.037Z</time>
      </trkpt>
      <trkpt lat="51.644888" lon="7.556532">
        <ele>84.809628</ele>
        <time>2026-08-27T14:50:12.749Z</time>
      </trkpt>
      <trkpt lat="51.644455" lon="7.557193">
        <ele>86.292521</ele>
        <time>2026-08-27T14:50:32.653Z</time>
      </trkpt>
      <trkpt lat="51.644173" lon="7.557606">
        <ele>87.239934</ele>
        <time>2026-08-27T14:50:43.719Z</time>
      </trkpt>
      <trkpt lat="51.645398" lon="7.559305">
        <ele>87.920306</ele>
        <time>2026-08-27T14:51:19.996Z</time>
      </trkpt>
      <trkpt lat="51.647549" lon="7.562273">
        <ele>85.219819</ele>
        <time>2026-08-27T14:52:16.033Z</time>
      </trkpt>
      <trkpt lat="51.647886" lon="7.562721">
        <ele>84.204745</ele>
        <time>2026-08-27T14:52:23.490Z</time>
      </trkpt>
      <trkpt lat="51.649602" lon="7.565093">
        <ele>77.863096</ele>
        <time>2026-08-27T14:53:00.164Z</time>
      </trkpt>
      <trkpt lat="51.649698" lon="7.565224">
        <ele>77.474662</ele>
        <time>2026-08-27T14:53:02.277Z</time>
      </trkpt>
      <trkpt lat="51.650134" lon="7.565817">
        <ele>75.995345</ele>
        <time>2026-08-27T14:53:11.924Z</time>
      </trkpt>
      <trkpt lat="51.651106" lon="7.567155">
        <ele>73.169554</ele>
        <time>2026-08-27T14:53:34.186Z</time>
      </trkpt>
      <trkpt lat="51.651287" lon="7.567297">
        <ele>72.725922</ele>
        <time>2026-08-27T14:53:37.760Z</time>
      </trkpt>
      <trkpt lat="51.651521" lon="7.567326">
        <ele>72.322830</ele>
        <time>2026-08-27T14:53:41.963Z</time>
      </trkpt>
      <trkpt lat="51.651726" lon="7.567278">
        <ele>71.967038</ele>
        <time>2026-08-27T14:53:45.681Z</time>
      </trkpt>
      <trkpt lat="51.652565" lon="7.566616">
        <ele>70.362611</ele>
        <time>2026-08-27T14:54:02.330Z</time>
      </trkpt>
      <trkpt lat="51.652603" lon="7.566770">
        <ele>70.186004</ele>
        <time>2026-08-27T14:54:04.162Z</time>
      </trkpt>
      <trkpt lat="51.652663" lon="7.566871">
        <ele>70.036996</ele>
        <time>2026-08-27T14:54:05.731Z</time>
      </trkpt>
      <trkpt lat="51.653328" lon="7.567705">
        <ele>70.133195</ele>
        <time>2026-08-27T14:54:21.439Z</time>
      </trkpt>
      <trkpt lat="51.654209" lon="7.568704">
        <ele>70.998222</ele>
        <time>2026-08-27T14:54:50.882Z</time>
      </trkpt>
      <trkpt lat="51.654545" lon="7.569150">
        <ele>72.517163</ele>
        <time>2026-08-27T14:55:07.630Z</time>
      </trkpt>
      <trkpt lat="51.654673" lon="7.569381">
        <ele>73.360511</ele>
        <time>2026-08-27T14:55:15.400Z</time>
      </trkpt>
      <trkpt lat="51.654823" lon="7.569786">
        <ele>74.644852</ele>
        <time>2026-08-27T14:55:27.809Z</time>
      </trkpt>
      <trkpt lat="51.655057" lon="7.570304">
        <ele>76.389603</ele>
        <time>2026-08-27T14:55:45.385Z</time>
      </trkpt>
      <trkpt lat="51.655412" lon="7.571009">
        <ele>78.861966</ele>
        <time>2026-08-27T14:56:08.835Z</time>
      </trkpt>
      <trkpt lat="51.655619" lon="7.571498">
        <ele>80.032935</ele>
        <time>2026-08-27T14:56:23.145Z</time>
      </trkpt>
      <trkpt lat="51.655993" lon="7.572233">
        <ele>81.857276</ele>
        <time>2026-08-27T14:56:43.910Z</time>
      </trkpt>
      <trkpt lat="51.656851" lon="7.573846">
        <ele>85.256831</ele>
        <time>2026-08-27T14:57:25.377Z</time>
      </trkpt>
      <trkpt lat="51.656946" lon="7.573917">
        <ele>85.422836</ele>
        <time>2026-08-27T14:57:28.470Z</time>
      </trkpt>
      <trkpt lat="51.657136" lon="7.574336">
        <ele>85.933263</ele>
        <time>2026-08-27T14:57:37.822Z</time>
      </trkpt>
      <trkpt lat="51.657151" lon="7.574431">
        <ele>86.029672</ele>
        <time>2026-08-27T14:57:39.607Z</time>
      </trkpt>
      <trkpt lat="51.657231" lon="7.574630">
        <ele>86.262884</ele>
        <time>2026-08-27T14:57:43.852Z</time>
      </trkpt>
      <trkpt lat="51.657333" lon="7.574769">
        <ele>86.474627</ele>
        <time>2026-08-27T14:57:47.707Z</time>
      </trkpt>
      <trkpt lat="51.657482" lon="7.574882">
        <ele>86.735676</ele>
        <time>2026-08-27T14:57:52.317Z</time>
      </trkpt>
      <trkpt lat="51.657933" lon="7.575095">
        <ele>87.405571</ele>
        <time>2026-08-27T14:58:04.735Z</time>
      </trkpt>
      <trkpt lat="51.658160" lon="7.575380">
        <ele>87.459503</ele>
        <time>2026-08-27T14:58:11.651Z</time>
      </trkpt>
      <trkpt lat="51.658235" lon="7.575512">
        <ele>87.480316</ele>
        <time>2026-08-27T14:58:14.268Z</time>
      </trkpt>
      <trkpt lat="51.658520" lon="7.576411">
        <ele>87.597709</ele>
        <time>2026-08-27T14:58:28.587Z</time>
      </trkpt>
      <trkpt lat="51.658590" lon="7.576593">
        <ele>87.622609</ele>
        <time>2026-08-27T14:58:31.513Z</time>
      </trkpt>
      <trkpt lat="51.658761" lon="7.576929">
        <ele>87.673143</ele>
        <time>2026-08-27T14:58:37.245Z</time>
      </trkpt>
      <trkpt lat="51.660095" lon="7.578908">
        <ele>87.441694</ele>
        <time>2026-08-27T14:59:16.198Z</time>
      </trkpt>
      <trkpt lat="51.659549" lon="7.579201">
        <ele>87.209465</ele>
        <time>2026-08-27T14:59:28.791Z</time>
      </trkpt>
      <trkpt lat="51.659515" lon="7.579423">
        <ele>87.119224</ele>
        <time>2026-08-27T14:59:31.821Z</time>
      </trkpt>
      <trkpt lat="51.659557" lon="7.581041">
        <ele>86.480136</ele>
        <time>2026-08-27T14:59:52.254Z</time>
      </trkpt>
      <trkpt lat="51.659536" lon="7.581735">
        <ele>86.134739</ele>
        <time>2026-08-27T15:00:00.467Z</time>
      </trkpt>
      <trkpt lat="51.659495" lon="7.582181">
        <ele>85.567596</ele>
        <time>2026-08-27T15:00:05.635Z</time>
      </trkpt>
      <trkpt lat="51.659453" lon="7.582440">
        <ele>85.230856</ele>
        <time>2026-08-27T15:00:08.643Z</time>
      </trkpt>
      <trkpt lat="51.659337" lon="7.582823">
        <ele>84.694730</ele>
        <time>2026-08-27T15:00:13.378Z</time>
      </trkpt>
      <trkpt lat="51.658825" lon="7.584389">
        <ele>82.362068</ele>
        <time>2026-08-27T15:00:32.392Z</time>
      </trkpt>
      <trkpt lat="51.658217" lon="7.586136">
        <ele>77.676244</ele>
        <time>2026-08-27T15:00:52.264Z</time>
      </trkpt>
      <trkpt lat="51.657964" lon="7.587420">
        <ele>74.426624</ele>
        <time>2026-08-27T15:01:04.920Z</time>
      </trkpt>
      <trkpt lat="51.657828" lon="7.588449">
        <ele>71.777386</ele>
        <time>2026-08-27T15:01:14.833Z</time>
      </trkpt>
      <trkpt lat="51.657643" lon="7.590004">
        <ele>68.168658</ele>
        <time>2026-08-27T15:01:43.624Z</time>
      </trkpt>
      <trkpt lat="51.657668" lon="7.590468">
        <ele>67.613988</ele>
        <time>2026-08-27T15:01:52.625Z</time>
      </trkpt>
      <trkpt lat="51.657862" lon="7.592439">
        <ele>65.237316</ele>
        <time>2026-08-27T15:02:32.477Z</time>
      </trkpt>
      <trkpt lat="51.657945" lon="7.593765">
        <ele>63.978811</ele>
        <time>2026-08-27T15:03:00.035Z</time>
      </trkpt>
      <trkpt lat="51.658039" lon="7.595261">
        <ele>62.606991</ele>
        <time>2026-08-27T15:03:30.228Z</time>
      </trkpt>
      <trkpt lat="51.657579" lon="7.595641">
        <ele>62.005561</ele>
        <time>2026-08-27T15:03:46.919Z</time>
      </trkpt>
      <trkpt lat="51.657853" lon="7.596664">
        <ele>61.275519</ele>
        <time>2026-08-27T15:03:59.612Z</time>
      </trkpt>
      <trkpt lat="51.657891" lon="7.596809">
        <ele>61.172390</ele>
        <time>2026-08-27T15:04:01.451Z</time>
      </trkpt>
      <trkpt lat="51.658039" lon="7.597356">
        <ele>60.781410</ele>
        <time>2026-08-27T15:04:08.954Z</time>
      </trkpt>
      <trkpt lat="51.658130" lon="7.597694">
        <ele>60.540007</ele>
        <time>2026-08-27T15:04:13.921Z</time>
      </trkpt>
      <trkpt lat="51.658198" lon="7.598073">
        <ele>60.546448</ele>
        <time>2026-08-27T15:04:19.401Z</time>
      </trkpt>
      <trkpt lat="51.658234" lon="7.598332">
        <ele>60.573853</ele>
        <time>2026-08-27T15:04:23.158Z</time>
      </trkpt>
      <trkpt lat="51.658432" lon="7.599915">
        <ele>60.740587</ele>
        <time>2026-08-27T15:04:46.407Z</time>
      </trkpt>
      <trkpt lat="51.658488" lon="7.600391">
        <ele>60.790610</ele>
        <time>2026-08-27T15:04:53.428Z</time>
      </trkpt>
      <trkpt lat="51.658262" lon="7.600727">
        <ele>60.988354</ele>
        <time>2026-08-27T15:05:05.225Z</time>
      </trkpt>
      <trkpt lat="51.658268" lon="7.600799">
        <ele>61.030174</ele>
        <time>2026-08-27T15:05:06.297Z</time>
      </trkpt>
      <trkpt lat="51.658276" lon="7.600910">
        <ele>61.094501</ele>
        <time>2026-08-27T15:05:07.956Z</time>
      </trkpt>
      <trkpt lat="51.658322" lon="7.601024">
        <ele>61.172787</ele>
        <time>2026-08-27T15:05:10.000Z</time>
      </trkpt>
      <trkpt lat="51.658475" lon="7.601199">
        <ele>61.346872</ele>
        <time>2026-08-27T15:05:14.569Z</time>
      </trkpt>
      <trkpt lat="51.658651" lon="7.601817">
        <ele>61.738321</ele>
        <time>2026-08-27T15:05:25.162Z</time>
      </trkpt>
      <trkpt lat="51.658755" lon="7.602076">
        <ele>61.915922</ele>
        <time>2026-08-27T15:05:30.153Z</time>
      </trkpt>
      <trkpt lat="51.658873" lon="7.602271">
        <ele>62.072735</ele>
        <time>2026-08-27T15:05:34.755Z</time>
      </trkpt>
      <trkpt lat="51.658905" lon="7.602227">
        <ele>62.111764</ele>
        <time>2026-08-27T15:05:35.925Z</time>
      </trkpt>
      <trkpt lat="51.659063" lon="7.602631">
        <ele>62.386683</ele>
        <time>2026-08-27T15:05:44.332Z</time>
      </trkpt>
      <trkpt lat="51.659311" lon="7.603489">
        <ele>63.054978</ele>
        <time>2026-08-27T15:06:01.655Z</time>
      </trkpt>
      <trkpt lat="51.659329" lon="7.603554">
        <ele>63.107122</ele>
        <time>2026-08-27T15:06:02.962Z</time>
      </trkpt>
      <trkpt lat="51.659399" lon="7.603789">
        <ele>63.298087</ele>
        <time>2026-08-27T15:06:07.626Z</time>
      </trkpt>
      <trkpt lat="51.659520" lon="7.604222">
        <ele>63.645974</ele>
        <time>2026-08-27T15:06:15.782Z</time>
      </trkpt>
      <trkpt lat="51.659741" lon="7.604994">
        <ele>64.268804</ele>
        <time>2026-08-27T15:06:29.600Z</time>
      </trkpt>
      <trkpt lat="51.660020" lon="7.605973">
        <ele>64.463000</ele>
        <time>2026-08-27T15:06:45.852Z</time>
      </trkpt>
      <trkpt lat="51.660347" lon="7.607116">
        <ele>64.179909</ele>
        <time>2026-08-27T15:07:01.885Z</time>
      </trkpt>
      <trkpt lat="51.660527" lon="7.607746">
        <ele>64.023911</ele>
        <time>2026-08-27T15:07:10.330Z</time>
      </trkpt>
      <trkpt lat="51.660649" lon="7.608276">
        <ele>63.814082</ele>
        <time>2026-08-27T15:07:17.165Z</time>
      </trkpt>
      <trkpt lat="51.660719" lon="7.608718">
        <ele>63.554034</ele>
        <time>2026-08-27T15:07:22.632Z</time>
      </trkpt>
      <trkpt lat="51.660830" lon="7.609588">
        <ele>63.047702</ele>
        <time>2026-08-27T15:07:33.229Z</time>
      </trkpt>
      <trkpt lat="51.660848" lon="7.609777">
        <ele>62.938699</ele>
        <time>2026-08-27T15:07:35.564Z</time>
      </trkpt>
      <trkpt lat="51.660881" lon="7.610261">
        <ele>62.661130</ele>
        <time>2026-08-27T15:07:41.489Z</time>
      </trkpt>
      <trkpt lat="51.660908" lon="7.610944">
        <ele>62.271392</ele>
        <time>2026-08-27T15:07:49.923Z</time>
      </trkpt>
      <trkpt lat="51.660964" lon="7.612544">
        <ele>61.371528</ele>
        <time>2026-08-27T15:08:09.272Z</time>
      </trkpt>
      <trkpt lat="51.660966" lon="7.612851">
        <ele>61.199131</ele>
        <time>2026-08-27T15:08:12.906Z</time>
      </trkpt>
      <trkpt lat="51.661042" lon="7.613130">
        <ele>61.028026</ele>
        <time>2026-08-27T15:08:16.485Z</time>
      </trkpt>
      <trkpt lat="51.660526" lon="7.613666">
        <ele>60.612958</ele>
        <time>2026-08-27T15:08:28.995Z</time>
      </trkpt>
      <trkpt lat="51.660230" lon="7.613985">
        <ele>60.520445</ele>
        <time>2026-08-27T15:08:36.449Z</time>
      </trkpt>
      <trkpt lat="51.660150" lon="7.614094">
        <ele>60.493229</ele>
        <time>2026-08-27T15:08:38.656Z</time>
      </trkpt>
      <trkpt lat="51.659855" lon="7.614570">
        <ele>60.384780</ele>
        <time>2026-08-27T15:08:47.827Z</time>
      </trkpt>
      <trkpt lat="51.659638" lon="7.615031">
        <ele>60.291505</ele>
        <time>2026-08-27T15:08:56.330Z</time>
      </trkpt>
      <trkpt lat="51.659172" lon="7.616077">
        <ele>60.213521</ele>
        <time>2026-08-27T15:09:16.532Z</time>
      </trkpt>
      <trkpt lat="51.658898" lon="7.616662">
        <ele>60.224807</ele>
        <time>2026-08-27T15:09:27.483Z</time>
      </trkpt>
      <trkpt lat="51.658777" lon="7.616852">
        <ele>60.229000</ele>
        <time>2026-08-27T15:09:31.448Z</time>
      </trkpt>
      <trkpt lat="51.658746" lon="7.616884">
        <ele>60.229914</ele>
        <time>2026-08-27T15:09:32.313Z</time>
      </trkpt>
      <trkpt lat="51.658695" lon="7.616939">
        <ele>60.231437</ele>
        <time>2026-08-27T15:09:33.698Z</time>
      </trkpt>
      <trkpt lat="51.658418" lon="7.617233">
        <ele>60.239668</ele>
        <time>2026-08-27T15:09:41.099Z</time>
      </trkpt>
      <trkpt lat="51.657955" lon="7.617693">
        <ele>60.115151</ele>
        <time>2026-08-27T15:09:52.768Z</time>
      </trkpt>
      <trkpt lat="51.657591" lon="7.618121">
        <ele>59.881456</ele>
        <time>2026-08-27T15:10:01.958Z</time>
      </trkpt>
      <trkpt lat="51.657103" lon="7.618764">
        <ele>59.554533</ele>
        <time>2026-08-27T15:10:15.274Z</time>
      </trkpt>
      <trkpt lat="51.656926" lon="7.618991">
        <ele>59.437213</ele>
        <time>2026-08-27T15:10:20.252Z</time>
      </trkpt>
      <trkpt lat="51.656555" lon="7.619468">
        <ele>59.314026</ele>
        <time>2026-08-27T15:10:30.973Z</time>
      </trkpt>
      <trkpt lat="51.656466" lon="7.619593">
        <ele>59.314075</ele>
        <time>2026-08-27T15:10:33.663Z</time>
      </trkpt>
      <trkpt lat="51.656430" lon="7.619649">
        <ele>59.314096</ele>
        <time>2026-08-27T15:10:34.793Z</time>
      </trkpt>
      <trkpt lat="51.656030" lon="7.620281">
        <ele>59.314330</ele>
        <time>2026-08-27T15:10:47.822Z</time>
      </trkpt>
      <trkpt lat="51.655921" lon="7.620483">
        <ele>59.314399</ele>
        <time>2026-08-27T15:10:51.864Z</time>
      </trkpt>
      <trkpt lat="51.655856" lon="7.620603">
        <ele>59.314441</ele>
        <time>2026-08-27T15:10:54.297Z</time>
      </trkpt>
      <trkpt lat="51.655614" lon="7.621084">
        <ele>59.314601</ele>
        <time>2026-08-27T15:11:03.810Z</time>
      </trkpt>
      <trkpt lat="51.655109" lon="7.622217">
        <ele>58.819873</ele>
        <time>2026-08-27T15:11:22.752Z</time>
      </trkpt>
      <trkpt lat="51.655040" lon="7.622388">
        <ele>58.727927</ele>
        <time>2026-08-27T15:11:25.443Z</time>
      </trkpt>
      <trkpt lat="51.654810" lon="7.622933">
        <ele>58.430821</ele>
        <time>2026-08-27T15:11:33.997Z</time>
      </trkpt>
      <trkpt lat="51.654561" lon="7.623481">
        <ele>58.124647</ele>
        <time>2026-08-27T15:11:42.371Z</time>
      </trkpt>
      <trkpt lat="51.654255" lon="7.624152">
        <ele>57.680372</ele>
        <time>2026-08-27T15:11:52.234Z</time>
      </trkpt>
      <trkpt lat="51.654230" lon="7.624210">
        <ele>57.640056</ele>
        <time>2026-08-27T15:11:53.077Z</time>
      </trkpt>
      <trkpt lat="51.654070" lon="7.624575">
        <ele>57.384935</ele>
        <time>2026-08-27T15:11:58.557Z</time>
      </trkpt>
      <trkpt lat="51.653903" lon="7.624982">
        <ele>57.106383</ele>
        <time>2026-08-27T15:12:04.715Z</time>
      </trkpt>
      <trkpt lat="51.653799" lon="7.625101">
        <ele>56.989030</ele>
        <time>2026-08-27T15:12:07.198Z</time>
      </trkpt>
      <trkpt lat="51.653700" lon="7.625441">
        <ele>56.774627</ele>
        <time>2026-08-27T15:12:11.818Z</time>
      </trkpt>
      <trkpt lat="51.653212" lon="7.626550">
        <ele>56.396549</ele>
        <time>2026-08-27T15:12:29.092Z</time>
      </trkpt>
      <trkpt lat="51.653202" lon="7.626805">
        <ele>56.414504</ele>
        <time>2026-08-27T15:12:32.779Z</time>
      </trkpt>
      <trkpt lat="51.653226" lon="7.626899">
        <ele>56.421647</ele>
        <time>2026-08-27T15:12:34.252Z</time>
      </trkpt>
      <trkpt lat="51.653314" lon="7.627037">
        <ele>56.435554</ele>
        <time>2026-08-27T15:12:37.162Z</time>
      </trkpt>
      <trkpt lat="51.653578" lon="7.627398">
        <ele>56.474768</ele>
        <time>2026-08-27T15:12:45.426Z</time>
      </trkpt>
      <trkpt lat="51.653753" lon="7.627728">
        <ele>56.505276</ele>
        <time>2026-08-27T15:12:51.902Z</time>
      </trkpt>
      <trkpt lat="51.653849" lon="7.627981">
        <ele>56.526116</ele>
        <time>2026-08-27T15:12:56.304Z</time>
      </trkpt>
      <trkpt lat="51.653899" lon="7.628112">
        <ele>56.536925</ele>
        <time>2026-08-27T15:12:58.565Z</time>
      </trkpt>
      <trkpt lat="51.654165" lon="7.629208">
        <ele>56.516617</ele>
        <time>2026-08-27T15:13:15.256Z</time>
      </trkpt>
      <trkpt lat="51.654452" lon="7.630449">
        <ele>56.457464</ele>
        <time>2026-08-27T15:13:32.865Z</time>
      </trkpt>
      <trkpt lat="51.654597" lon="7.631084">
        <ele>56.427243</ele>
        <time>2026-08-27T15:13:41.765Z</time>
      </trkpt>
      <trkpt lat="51.654868" lon="7.632373">
        <ele>56.388202</ele>
        <time>2026-08-27T15:14:00.257Z</time>
      </trkpt>
      <trkpt lat="51.654968" lon="7.632921">
        <ele>56.371829</ele>
        <time>2026-08-27T15:14:08.163Z</time>
      </trkpt>
      <trkpt lat="51.655060" lon="7.633514">
        <ele>56.354308</ele>
        <time>2026-08-27T15:14:16.630Z</time>
      </trkpt>
      <trkpt lat="51.655237" lon="7.634633">
        <ele>56.396990</ele>
        <time>2026-08-27T15:14:32.936Z</time>
      </trkpt>
      <trkpt lat="51.655274" lon="7.634930">
        <ele>56.417102</ele>
        <time>2026-08-27T15:14:37.252Z</time>
      </trkpt>
      <trkpt lat="51.655544" lon="7.637457">
        <ele>56.720021</ele>
        <time>2026-08-27T15:15:13.356Z</time>
      </trkpt>
      <trkpt lat="51.655560" lon="7.637590">
        <ele>56.752507</ele>
        <time>2026-08-27T15:15:15.055Z</time>
      </trkpt>
      <trkpt lat="51.655568" lon="7.637645">
        <ele>56.766053</ele>
        <time>2026-08-27T15:15:15.773Z</time>
      </trkpt>
      <trkpt lat="51.655806" lon="7.639256">
        <ele>57.163147</ele>
        <time>2026-08-27T15:15:39.371Z</time>
      </trkpt>
      <trkpt lat="51.655810" lon="7.639279">
        <ele>57.168875</ele>
        <time>2026-08-27T15:15:39.755Z</time>
      </trkpt>
      <trkpt lat="51.655849" lon="7.639539">
        <ele>57.236939</ele>
        <time>2026-08-27T15:15:44.255Z</time>
      </trkpt>
      <trkpt lat="51.655856" lon="7.639583">
        <ele>57.281189</ele>
        <time>2026-08-27T15:15:45.041Z</time>
      </trkpt>
      <trkpt lat="51.655902" lon="7.639830">
        <ele>57.532417</ele>
        <time>2026-08-27T15:15:49.540Z</time>
      </trkpt>
      <trkpt lat="51.655915" lon="7.639915">
        <ele>57.617700</ele>
        <time>2026-08-27T15:15:51.098Z</time>
      </trkpt>
      <trkpt lat="51.656007" lon="7.640589">
        <ele>58.289993</ele>
        <time>2026-08-27T15:16:04.045Z</time>
      </trkpt>
      <trkpt lat="51.655889" lon="7.640695">
        <ele>58.502115</ele>
        <time>2026-08-27T15:16:08.365Z</time>
      </trkpt>
      <trkpt lat="51.655965" lon="7.640982">
        <ele>58.806106</ele>
        <time>2026-08-27T15:16:17.546Z</time>
      </trkpt>
      <trkpt lat="51.656588" lon="7.641787">
        <ele>60.055810</ele>
        <time>2026-08-27T15:16:52.712Z</time>
      </trkpt>
      <trkpt lat="51.656582" lon="7.642110">
        <ele>60.033201</ele>
        <time>2026-08-27T15:17:00.654Z</time>
      </trkpt>
      <trkpt lat="51.656538" lon="7.642261">
        <ele>60.021529</ele>
        <time>2026-08-27T15:17:04.591Z</time>
      </trkpt>
      <trkpt lat="51.656468" lon="7.642501">
        <ele>60.002974</ele>
        <time>2026-08-27T15:17:10.705Z</time>
      </trkpt>
      <trkpt lat="51.656304" lon="7.642761">
        <ele>59.977032</ele>
        <time>2026-08-27T15:17:19.121Z</time>
      </trkpt>
      <trkpt lat="51.656158" lon="7.642745">
        <ele>59.960528</ele>
        <time>2026-08-27T15:17:24.398Z</time>
      </trkpt>
      <trkpt lat="51.655977" lon="7.642598">
        <ele>59.937671</ele>
        <time>2026-08-27T15:17:31.586Z</time>
      </trkpt>
      <trkpt lat="51.655815" lon="7.642346">
        <ele>59.912280</ele>
        <time>2026-08-27T15:17:39.409Z</time>
      </trkpt>
      <trkpt lat="51.655543" lon="7.642102">
        <ele>59.877174</ele>
        <time>2026-08-27T15:17:50.130Z</time>
      </trkpt>
      <trkpt lat="51.655301" lon="7.642078">
        <ele>59.835286</ele>
        <time>2026-08-27T15:17:58.522Z</time>
      </trkpt>
      <trkpt lat="51.654998" lon="7.642184">
        <ele>59.650965</ele>
        <time>2026-08-27T15:18:09.284Z</time>
      </trkpt>
      <trkpt lat="51.654821" lon="7.642305">
        <ele>59.536670</ele>
        <time>2026-08-27T15:18:15.984Z</time>
      </trkpt>
      <trkpt lat="51.654660" lon="7.642761">
        <ele>59.343163</ele>
        <time>2026-08-27T15:18:27.364Z</time>
      </trkpt>
      <trkpt lat="51.654519" lon="7.642915">
        <ele>59.241911</ele>
        <time>2026-08-27T15:18:33.326Z</time>
      </trkpt>
      <trkpt lat="51.654216" lon="7.642932">
        <ele>59.061674</ele>
        <time>2026-08-27T15:18:43.858Z</time>
      </trkpt>
      <trkpt lat="51.653797" lon="7.642777">
        <ele>58.806111</ele>
        <time>2026-08-27T15:18:58.699Z</time>
      </trkpt>
      <trkpt lat="51.653475" lon="7.642395">
        <ele>58.741641</ele>
        <time>2026-08-27T15:19:13.044Z</time>
      </trkpt>
      <trkpt lat="51.653015" lon="7.642289">
        <ele>58.687384</ele>
        <time>2026-08-27T15:19:30.005Z</time>
      </trkpt>
      <trkpt lat="51.652953" lon="7.642461">
        <ele>58.672974</ele>
        <time>2026-08-27T15:19:34.522Z</time>
      </trkpt>
      <trkpt lat="51.653350" lon="7.642675">
        <ele>58.624096</ele>
        <time>2026-08-27T15:19:44.817Z</time>
      </trkpt>
      <trkpt lat="51.654598" lon="7.643402">
        <ele>58.378786</ele>
        <time>2026-08-27T15:20:18.566Z</time>
      </trkpt>
      <trkpt lat="51.653350" lon="7.642675">
        <ele>57.680460</ele>
        <time>2026-08-27T15:20:48.994Z</time>
      </trkpt>
      <trkpt lat="51.652953" lon="7.642461">
        <ele>57.186763</ele>
        <time>2026-08-27T15:20:57.798Z</time>
      </trkpt>
      <trkpt lat="51.652063" lon="7.641887">
        <ele>56.056597</ele>
        <time>2026-08-27T15:21:17.462Z</time>
      </trkpt>
      <trkpt lat="51.651832" lon="7.641767">
        <ele>55.790391</ele>
        <time>2026-08-27T15:21:22.546Z</time>
      </trkpt>
      <trkpt lat="51.651365" lon="7.641666">
        <ele>55.273573</ele>
        <time>2026-08-27T15:21:32.643Z</time>
      </trkpt>
      <trkpt lat="51.651063" lon="7.641673">
        <ele>54.942292</ele>
        <time>2026-08-27T15:21:39.326Z</time>
      </trkpt>
      <trkpt lat="51.650758" lon="7.641720">
        <ele>54.606228</ele>
        <time>2026-08-27T15:21:46.203Z</time>
      </trkpt>
      <trkpt lat="51.650097" lon="7.641919">
        <ele>54.021175</ele>
        <time>2026-08-27T15:22:00.622Z</time>
      </trkpt>
      <trkpt lat="51.649628" lon="7.642205">
        <ele>53.852216</ele>
        <time>2026-08-27T15:22:11.229Z</time>
      </trkpt>
      <trkpt lat="51.649257" lon="7.642561">
        <ele>53.706731</ele>
        <time>2026-08-27T15:22:20.857Z</time>
      </trkpt>
      <trkpt lat="51.649079" lon="7.642766">
        <ele>53.633016</ele>
        <time>2026-08-27T15:22:26.216Z</time>
      </trkpt>
      <trkpt lat="51.648669" lon="7.643293">
        <ele>53.593334</ele>
        <time>2026-08-27T15:22:39.259Z</time>
      </trkpt>
      <trkpt lat="51.648147" lon="7.643963">
        <ele>54.533670</ele>
        <time>2026-08-27T15:23:00.313Z</time>
      </trkpt>
      <trkpt lat="51.647872" lon="7.644237">
        <ele>54.989257</ele>
        <time>2026-08-27T15:23:11.114Z</time>
      </trkpt>
      <trkpt lat="51.647546" lon="7.644503">
        <ele>55.504155</ele>
        <time>2026-08-27T15:23:23.192Z</time>
      </trkpt>
      <trkpt lat="51.646029" lon="7.645648">
        <ele>56.444685</ele>
        <time>2026-08-27T15:24:09.184Z</time>
      </trkpt>
      <trkpt lat="51.645959" lon="7.645578">
        <ele>56.471543</ele>
        <time>2026-08-27T15:24:11.035Z</time>
      </trkpt>
      <trkpt lat="51.645871" lon="7.645420">
        <ele>56.514494</ele>
        <time>2026-08-27T15:24:13.958Z</time>
      </trkpt>
      <trkpt lat="51.645745" lon="7.645096">
        <ele>56.591848</ele>
        <time>2026-08-27T15:24:19.035Z</time>
      </trkpt>
      <trkpt lat="51.645709" lon="7.645088">
        <ele>56.603662</ele>
        <time>2026-08-27T15:24:19.792Z</time>
      </trkpt>
      <trkpt lat="51.645666" lon="7.644977">
        <ele>56.596722</ele>
        <time>2026-08-27T15:24:21.511Z</time>
      </trkpt>
      <trkpt lat="51.644790" lon="7.645819">
        <ele>56.509555</ele>
        <time>2026-08-27T15:24:43.803Z</time>
      </trkpt>
      <trkpt lat="51.644736" lon="7.645870">
        <ele>56.504206</ele>
        <time>2026-08-27T15:24:45.297Z</time>
      </trkpt>
      <trkpt lat="51.644236" lon="7.646352">
        <ele>56.454414</ele>
        <time>2026-08-27T15:24:59.550Z</time>
      </trkpt>
      <trkpt lat="51.644164" lon="7.646416">
        <ele>56.453056</ele>
        <time>2026-08-27T15:25:01.656Z</time>
      </trkpt>
      <trkpt lat="51.643978" lon="7.646596">
        <ele>56.475411</ele>
        <time>2026-08-27T15:25:07.414Z</time>
      </trkpt>
      <trkpt lat="51.643657" lon="7.646719">
        <ele>56.509408</ele>
        <time>2026-08-27T15:25:16.612Z</time>
      </trkpt>
      <trkpt lat="51.643257" lon="7.646791">
        <ele>56.550879</ele>
        <time>2026-08-27T15:25:26.653Z</time>
      </trkpt>
      <trkpt lat="51.643285" lon="7.647018">
        <ele>56.565678</ele>
        <time>2026-08-27T15:25:29.680Z</time>
      </trkpt>
      <trkpt lat="51.643312" lon="7.647132">
        <ele>56.573480</ele>
        <time>2026-08-27T15:25:31.406Z</time>
      </trkpt>
      <trkpt lat="51.643365" lon="7.647277">
        <ele>56.584240</ele>
        <time>2026-08-27T15:25:33.756Z</time>
      </trkpt>
      <trkpt lat="51.643456" lon="7.647332">
        <ele>56.594254</ele>
        <time>2026-08-27T15:25:35.939Z</time>
      </trkpt>
      <trkpt lat="51.643440" lon="7.647639">
        <ele>56.613953</ele>
        <time>2026-08-27T15:25:40.217Z</time>
      </trkpt>
      <trkpt lat="51.642665" lon="7.648248">
        <ele>56.578152</ele>
        <time>2026-08-27T15:26:00.191Z</time>
      </trkpt>
      <trkpt lat="51.641761" lon="7.648962">
        <ele>56.490367</ele>
        <time>2026-08-27T15:26:25.089Z</time>
      </trkpt>
      <trkpt lat="51.636022" lon="7.653355">
        <ele>59.927913</ele>
        <time>2026-08-27T15:29:17.149Z</time>
      </trkpt>
      <trkpt lat="51.634329" lon="7.654656">
        <ele>60.633986</ele>
        <time>2026-08-27T15:30:04.932Z</time>
      </trkpt>
      <trkpt lat="51.634155" lon="7.654798">
        <ele>60.704679</ele>
        <time>2026-08-27T15:30:09.655Z</time>
      </trkpt>
      <trkpt lat="51.632748" lon="7.655864">
        <ele>61.452724</ele>
        <time>2026-08-27T15:30:51.864Z</time>
      </trkpt>
      <trkpt lat="51.632042" lon="7.656352">
        <ele>61.898065</ele>
        <time>2026-08-27T15:31:12.683Z</time>
      </trkpt>
      <trkpt lat="51.631700" lon="7.656463">
        <ele>62.157006</ele>
        <time>2026-08-27T15:31:21.889Z</time>
      </trkpt>
      <trkpt lat="51.631311" lon="7.656515">
        <ele>62.515182</ele>
        <time>2026-08-27T15:31:32.358Z</time>
      </trkpt>
      <trkpt lat="51.630939" lon="7.656459">
        <ele>62.858019</ele>
        <time>2026-08-27T15:31:42.702Z</time>
      </trkpt>
      <trkpt lat="51.630629" lon="7.656345">
        <ele>63.149794</ele>
        <time>2026-08-27T15:31:51.765Z</time>
      </trkpt>
      <trkpt lat="51.630291" lon="7.656144">
        <ele>63.480401</ele>
        <time>2026-08-27T15:32:01.524Z</time>
      </trkpt>
      <trkpt lat="51.630047" lon="7.655937">
        <ele>63.784997</ele>
        <time>2026-08-27T15:32:09.244Z</time>
      </trkpt>
      <trkpt lat="51.629707" lon="7.655523">
        <ele>64.428188</ele>
        <time>2026-08-27T15:32:21.628Z</time>
      </trkpt>
      <trkpt lat="51.629160" lon="7.654515">
        <ele>65.682439</ele>
        <time>2026-08-27T15:32:45.577Z</time>
      </trkpt>
      <trkpt lat="51.628950" lon="7.653705">
        <ele>66.490968</ele>
        <time>2026-08-27T15:33:00.378Z</time>
      </trkpt>
      <trkpt lat="51.628902" lon="7.653472">
        <ele>66.697754</ele>
        <time>2026-08-27T15:33:06.868Z</time>
      </trkpt>
      <trkpt lat="51.628815" lon="7.652718">
        <ele>67.343742</ele>
        <time>2026-08-27T15:33:27.527Z</time>
      </trkpt>
      <trkpt lat="51.628805" lon="7.652334">
        <ele>67.667478</ele>
        <time>2026-08-27T15:33:37.934Z</time>
      </trkpt>
      <trkpt lat="51.628917" lon="7.650868">
        <ele>68.854259</ele>
        <time>2026-08-27T15:34:16.691Z</time>
      </trkpt>
      <trkpt lat="51.628959" lon="7.650213">
        <ele>69.100229</ele>
        <time>2026-08-27T15:34:33.459Z</time>
      </trkpt>
      <trkpt lat="51.629156" lon="7.647116">
        <ele>70.683574</ele>
        <time>2026-08-27T15:35:47.773Z</time>
      </trkpt>
      <trkpt lat="51.629129" lon="7.647016">
        <ele>70.770315</ele>
        <time>2026-08-27T15:35:50.090Z</time>
      </trkpt>
      <trkpt lat="51.629076" lon="7.646969">
        <ele>70.847839</ele>
        <time>2026-08-27T15:35:52.152Z</time>
      </trkpt>
      <trkpt lat="51.629005" lon="7.646987">
        <ele>70.939937</ele>
        <time>2026-08-27T15:35:54.652Z</time>
      </trkpt>
      <trkpt lat="51.628956" lon="7.647062">
        <ele>71.026547</ele>
        <time>2026-08-27T15:35:56.987Z</time>
      </trkpt>
      <trkpt lat="51.628572" lon="7.647669">
        <ele>71.715921</ele>
        <time>2026-08-27T15:36:20.438Z</time>
      </trkpt>
      <trkpt lat="51.628444" lon="7.647579">
        <ele>71.894881</ele>
        <time>2026-08-27T15:36:24.992Z</time>
      </trkpt>
      <trkpt lat="51.628136" lon="7.647114">
        <ele>72.612228</ele>
        <time>2026-08-27T15:36:39.264Z</time>
      </trkpt>
      <trkpt lat="51.627898" lon="7.646329">
        <ele>73.817745</ele>
        <time>2026-08-27T15:36:58.077Z</time>
      </trkpt>
      <trkpt lat="51.627624" lon="7.645682">
        <ele>74.898518</ele>
        <time>2026-08-27T15:37:14.780Z</time>
      </trkpt>
      <trkpt lat="51.627162" lon="7.644934">
        <ele>76.248110</ele>
        <time>2026-08-27T15:37:36.750Z</time>
      </trkpt>
      <trkpt lat="51.626878" lon="7.644362">
        <ele>76.589289</ele>
        <time>2026-08-27T15:37:51.170Z</time>
      </trkpt>
      <trkpt lat="51.626534" lon="7.643371">
        <ele>77.118172</ele>
        <time>2026-08-27T15:38:10.484Z</time>
      </trkpt>
      <trkpt lat="51.626430" lon="7.643287">
        <ele>77.205470</ele>
        <time>2026-08-27T15:38:13.286Z</time>
      </trkpt>
      <trkpt lat="51.626328" lon="7.643320">
        <ele>77.283535</ele>
        <time>2026-08-27T15:38:15.779Z</time>
      </trkpt>
      <trkpt lat="51.626043" lon="7.643530">
        <ele>77.518698</ele>
        <time>2026-08-27T15:38:23.109Z</time>
      </trkpt>
      <trkpt lat="51.625588" lon="7.643883">
        <ele>77.410460</ele>
        <time>2026-08-27T15:38:34.809Z</time>
      </trkpt>
      <trkpt lat="51.625608" lon="7.642271">
        <ele>77.128355</ele>
        <time>2026-08-27T15:38:55.731Z</time>
      </trkpt>
      <trkpt lat="51.625583" lon="7.642266">
        <ele>77.121255</ele>
        <time>2026-08-27T15:38:56.286Z</time>
      </trkpt>
      <trkpt lat="51.625481" lon="7.642251">
        <ele>77.092388</ele>
        <time>2026-08-27T15:38:58.512Z</time>
      </trkpt>
      <trkpt lat="51.624771" lon="7.642194">
        <ele>77.044721</ele>
        <time>2026-08-27T15:39:14.282Z</time>
      </trkpt>
      <trkpt lat="51.624374" lon="7.642257">
        <ele>77.051077</ele>
        <time>2026-08-27T15:39:23.211Z</time>
      </trkpt>
      <trkpt lat="51.624057" lon="7.642382">
        <ele>77.056278</ele>
        <time>2026-08-27T15:39:30.467Z</time>
      </trkpt>
      <trkpt lat="51.623921" lon="7.642451">
        <ele>77.058550</ele>
        <time>2026-08-27T15:39:33.564Z</time>
      </trkpt>
      <trkpt lat="51.623800" lon="7.642519">
        <ele>77.060592</ele>
        <time>2026-08-27T15:39:36.338Z</time>
      </trkpt>
      <trkpt lat="51.623698" lon="7.642586">
        <ele>77.062347</ele>
        <time>2026-08-27T15:39:38.751Z</time>
      </trkpt>
      <trkpt lat="51.623621" lon="7.642633">
        <ele>77.063659</ele>
        <time>2026-08-27T15:39:40.600Z</time>
      </trkpt>
      <trkpt lat="51.623583" lon="7.642471">
        <ele>77.076802</ele>
        <time>2026-08-27T15:39:43.719Z</time>
      </trkpt>
      <trkpt lat="51.623338" lon="7.641433">
        <ele>77.863650</ele>
        <time>2026-08-27T15:40:05.238Z</time>
      </trkpt>
      <trkpt lat="51.623280" lon="7.641195">
        <ele>78.044816</ele>
        <time>2026-08-27T15:40:10.422Z</time>
      </trkpt>
      <trkpt lat="51.623139" lon="7.640793">
        <ele>78.371975</ele>
        <time>2026-08-27T15:40:19.864Z</time>
      </trkpt>
      <trkpt lat="51.621568" lon="7.640421">
        <ele>80.870387</ele>
        <time>2026-08-27T15:41:19.878Z</time>
      </trkpt>
      <trkpt lat="51.621481" lon="7.640400">
        <ele>81.035402</ele>
        <time>2026-08-27T15:41:23.422Z</time>
      </trkpt>
      <trkpt lat="51.621270" lon="7.640337">
        <ele>81.437933</ele>
        <time>2026-08-27T15:41:31.831Z</time>
      </trkpt>
      <trkpt lat="51.620733" lon="7.640222">
        <ele>82.454088</ele>
        <time>2026-08-27T15:41:51.759Z</time>
      </trkpt>
      <trkpt lat="51.620652" lon="7.640203">
        <ele>82.390489</ele>
        <time>2026-08-27T15:41:54.556Z</time>
      </trkpt>
      <trkpt lat="51.620547" lon="7.640176">
        <ele>82.215762</ele>
        <time>2026-08-27T15:41:58.042Z</time>
      </trkpt>
      <trkpt lat="51.620443" lon="7.640151">
        <ele>82.042970</ele>
        <time>2026-08-27T15:42:01.426Z</time>
      </trkpt>
      <trkpt lat="51.620168" lon="7.640104">
        <ele>81.588536</ele>
        <time>2026-08-27T15:42:09.527Z</time>
      </trkpt>
      <trkpt lat="51.620103" lon="7.640093">
        <ele>81.481136</ele>
        <time>2026-08-27T15:42:11.274Z</time>
      </trkpt>
      <trkpt lat="51.619849" lon="7.640044">
        <ele>81.060765</ele>
        <time>2026-08-27T15:42:17.829Z</time>
      </trkpt>
      <trkpt lat="51.619809" lon="7.640037">
        <ele>80.994647</ele>
        <time>2026-08-27T15:42:18.810Z</time>
      </trkpt>
      <trkpt lat="51.619079" lon="7.640036">
        <ele>79.795067</ele>
        <time>2026-08-27T15:42:35.328Z</time>
      </trkpt>
      <trkpt lat="51.618569" lon="7.640099">
        <ele>77.795068</ele>
        <time>2026-08-27T15:42:46.285Z</time>
      </trkpt>
      <trkpt lat="51.618269" lon="7.640086">
        <ele>76.318932</ele>
        <time>2026-08-27T15:42:51.003Z</time>
      </trkpt>
      <trkpt lat="51.618264" lon="7.640177">
        <ele>76.039932</ele>
        <time>2026-08-27T15:42:51.843Z</time>
      </trkpt>
      <trkpt lat="51.618248" lon="7.640276">
        <ele>75.727512</ele>
        <time>2026-08-27T15:42:52.778Z</time>
      </trkpt>
      <trkpt lat="51.618210" lon="7.640353">
        <ele>75.427122</ele>
        <time>2026-08-27T15:42:53.679Z</time>
      </trkpt>
      <trkpt lat="51.618171" lon="7.640409">
        <ele>75.170125</ele>
        <time>2026-08-27T15:42:54.453Z</time>
      </trkpt>
      <trkpt lat="51.617986" lon="7.640564">
        <ele>74.144407</ele>
        <time>2026-08-27T15:42:57.544Z</time>
      </trkpt>
      <trkpt lat="51.617506" lon="7.640889">
        <ele>71.583289</ele>
        <time>2026-08-27T15:43:05.348Z</time>
      </trkpt>
      <trkpt lat="51.617325" lon="7.641072">
        <ele>70.689306</ele>
        <time>2026-08-27T15:43:08.592Z</time>
      </trkpt>
      <trkpt lat="51.617168" lon="7.641288">
        <ele>70.689306</ele>
        <time>2026-08-27T15:43:11.753Z</time>
      </trkpt>
      <trkpt lat="51.616815" lon="7.641934">
        <ele>70.689306</ele>
        <time>2026-08-27T15:43:19.968Z</time>
      </trkpt>
      <trkpt lat="51.616603" lon="7.642356">
        <ele>70.689306</ele>
        <time>2026-08-27T15:43:25.493Z</time>
      </trkpt>
      <trkpt lat="51.616492" lon="7.642490">
        <ele>70.689306</ele>
        <time>2026-08-27T15:43:27.902Z</time>
      </trkpt>
      <trkpt lat="51.616427" lon="7.642550">
        <ele>70.689306</ele>
        <time>2026-08-27T15:43:29.226Z</time>
      </trkpt>
      <trkpt lat="51.616197" lon="7.642729">
        <ele>70.689306</ele>
        <time>2026-08-27T15:43:33.815Z</time>
      </trkpt>
      <trkpt lat="51.616261" lon="7.643098">
        <ele>70.689306</ele>
        <time>2026-08-27T15:43:38.198Z</time>
      </trkpt>
      <trkpt lat="51.616301" lon="7.643330">
        <ele>70.689306</ele>
        <time>2026-08-27T15:43:40.982Z</time>
      </trkpt>
      <trkpt lat="51.616219" lon="7.643369">
        <ele>70.689306</ele>
        <time>2026-08-27T15:43:42.587Z</time>
      </trkpt>
      <trkpt lat="51.616047" lon="7.643451">
        <ele>70.689306</ele>
        <time>2026-08-27T15:43:46.051Z</time>
      </trkpt>
    </trkseg>
  </trk>
</gpx>